Observation data for Palo Duro Canyon State Park Floor on 12/08/2019      Previous  Date       Current Mesonet Observations  Soil Data  Daily Summary Page  Observations in Plain Language
KPD2 080600Z 32002KT 10/02 A2994 RMK A01 T00970015  RH  056%=      5-min Rain = 0
KPD2 080601Z 03000KT 10/01 A2994 RMK A01 T00970014  RH  056%=      5-min Rain = 0
KPD2 080602Z 02001KT 10/01 A2994 RMK A01 T00960013  RH  056%=      5-min Rain = 0
KPD2 080603Z 02000KT 10/01 A2994 RMK A01 T00960014  RH  057%=      5-min Rain = 0
KPD2 080604Z 00000KT 10/01 A2994 RMK A01 T00950014  RH  057%=      5-min Rain = 0
KPD2 080605Z 00000KT 10/01 A2994 RMK A01 T00950013  RH  057%=      5-min Rain = 0
KPD2 080606Z 01001KT 09/01 A2994 RMK A01 T00940013  RH  057%=      5-min Rain = 0
KPD2 080607Z 01001KT 09/01 A2994 RMK A01 T00930013  RH  057%=      5-min Rain = 0
KPD2 080608Z 01001KT 09/01 A2994 RMK A01 T00920013  RH  057%=      5-min Rain = 0
KPD2 080609Z 34002KT 09/01 A2994 RMK A01 T00920013  RH  058%=      5-min Rain = 0
KPD2 080610Z 01003KT 09/01 A2994 RMK A01 T00920013  RH  058%=      5-min Rain = 0
KPD2 080611Z 34003KT 09/01 A2994 RMK A01 T00910013  RH  058%=      5-min Rain = 0
KPD2 080612Z 33002KT 09/01 A2993 RMK A01 T00910013  RH  058%=      5-min Rain = 0
KPD2 080613Z 33005KT 09/01 A2993 RMK A01 T00910013  RH  058%=      5-min Rain = 0
KPD2 080614Z 28004KT 09/01 A2993 RMK A01 T00900012  RH  058%=      5-min Rain = 0
KPD2 080615Z 31002KT 09/01 A2993 RMK A01 T00900012  RH  058%=      5-min Rain = 0
KPD2 080616Z 34003KT 09/01 A2993 RMK A01 T00900012  RH  058%=      5-min Rain = 0
KPD2 080617Z 33003KT 09/01 A2993 RMK A01 T00900012  RH  058%=      5-min Rain = 0
KPD2 080618Z 29002KT 09/01 A2993 RMK A01 T00910013  RH  058%=      5-min Rain = 0
KPD2 080619Z 01002KT 09/01 A2992 RMK A01 T00910013  RH  058%=      5-min Rain = 0
KPD2 080620Z 30002KT 09/01 A2992 RMK A01 T00910013  RH  058%=      5-min Rain = 0
KPD2 080621Z 30002KT 09/01 A2992 RMK A01 T00900013  RH  058%=      5-min Rain = 0
KPD2 080622Z 28003KT 09/01 A2992 RMK A01 T00900013  RH  058%=      5-min Rain = 0
KPD2 080623Z 27002KT 09/01 A2992 RMK A01 T00900013  RH  058%=      5-min Rain = 0
KPD2 080624Z 26003KT 09/01 A2992 RMK A01 T00910013  RH  058%=      5-min Rain = 0
KPD2 080625Z 31001KT 09/01 A2992 RMK A01 T00910013  RH  058%=      5-min Rain = 0
KPD2 080626Z 33004KT 09/01 A2992 RMK A01 T00920013  RH  058%=      5-min Rain = 0
KPD2 080627Z 33001KT 09/01 A2992 RMK A01 T00920013  RH  057%=      5-min Rain = 0
KPD2 080628Z 33002KT 09/01 A2992 RMK A01 T00920013  RH  058%=      5-min Rain = 0
KPD2 080629Z 34001KT 09/01 A2992 RMK A01 T00920013  RH  058%=      5-min Rain = 0
KPD2 080630Z 24000KT 09/01 A2992 RMK A01 T00920013  RH  058%=      5-min Rain = 0
KPD2 080631Z 26003KT 09/01 A2992 RMK A01 T00910013  RH  058%=      5-min Rain = 0
KPD2 080632Z 26002KT 09/01 A2992 RMK A01 T00920013  RH  058%=      5-min Rain = 0
KPD2 080633Z 27002KT 09/01 A2993 RMK A01 T00920013  RH  058%=      5-min Rain = 0
KPD2 080634Z 28002KT 09/01 A2993 RMK A01 T00910012  RH  058%=      5-min Rain = 0
KPD2 080635Z 28003KT 09/01 A2993 RMK A01 T00910012  RH  058%=      5-min Rain = 0
KPD2 080636Z 31004KT 09/01 A2993 RMK A01 T00900012  RH  058%=      5-min Rain = 0
KPD2 080637Z 30003KT 09/01 A2993 RMK A01 T00890012  RH  058%=      5-min Rain = 0
KPD2 080638Z 31002KT 09/01 A2993 RMK A01 T00890012  RH  059%=      5-min Rain = 0
KPD2 080639Z 32003KT 09/01 A2993 RMK A01 T00880012  RH  059%=      5-min Rain = 0
KPD2 080640Z 34003KT 09/01 A2993 RMK A01 T00880012  RH  059%=      5-min Rain = 0
KPD2 080641Z 33003KT 09/01 A2993 RMK A01 T00870012  RH  059%=      5-min Rain = 0
KPD2 080642Z 33005KT 09/01 A2993 RMK A01 T00860012  RH  060%=      5-min Rain = 0
KPD2 080643Z 34005KT 09/01 A2993 RMK A01 T00850011  RH  060%=      5-min Rain = 0
KPD2 080644Z 33006KT 08/01 A2993 RMK A01 T00840011  RH  060%=      5-min Rain = 0
KPD2 080645Z 33006KT 08/01 A2992 RMK A01 T00840013  RH  061%=      5-min Rain = 0
KPD2 080646Z 33006KT 09/01 A2992 RMK A01 T00870014  RH  060%=      5-min Rain = 0
KPD2 080647Z 34004KT 09/02 A2992 RMK A01 T00880015  RH  060%=      5-min Rain = 0
KPD2 080648Z 32004KT 09/01 A2992 RMK A01 T00890014  RH  060%=      5-min Rain = 0
KPD2 080649Z 32005KT 09/01 A2992 RMK A01 T00880014  RH  059%=      5-min Rain = 0
KPD2 080650Z 32005KT 09/01 A2992 RMK A01 T00880014  RH  059%=      5-min Rain = 0
KPD2 080651Z 32005KT 09/01 A2992 RMK A01 T00880013  RH  059%=      5-min Rain = 0
KPD2 080652Z 34003KT 09/01 A2992 RMK A01 T00880013  RH  059%=      5-min Rain = 0
KPD2 080653Z 33003KT 09/01 A2992 RMK A01 T00890013  RH  059%=      5-min Rain = 0
KPD2 080654Z 34003KT 09/01 A2992 RMK A01 T00870013  RH  059%=      5-min Rain = 0
KPD2 080655Z 33002KT 09/01 A2992 RMK A01 T00870013  RH  060%=      5-min Rain = 0
KPD2 080656Z 33001KT 09/01 A2991 RMK A01 T00860012  RH  060%=      5-min Rain = 0
KPD2 080657Z 00000KT 09/01 A2991 RMK A01 T00850012  RH  060%=      5-min Rain = 0
KPD2 080658Z 00000KT 08/01 A2991 RMK A01 T00830012  RH  061%=      5-min Rain = 0
KPD2 080659Z 30000KT 08/01 A2991 RMK A01 T00830012  RH  061%=      5-min Rain = 0
KPD2 080700Z 00000KT 08/01 A2991 RMK A01 T00820012  RH  061%=      5-min Rain = 0
KPD2 080701Z 00000KT 08/01 A2991 RMK A01 T00810012  RH  062%=      5-min Rain = 0
KPD2 080702Z 00000KT 08/01 A2991 RMK A01 T00810012  RH  062%=      5-min Rain = 0
KPD2 080703Z 00000KT 08/01 A2991 RMK A01 T00810012  RH  062%=      5-min Rain = 0
KPD2 080704Z 00000KT 08/01 A2991 RMK A01 T00810012  RH  062%=      5-min Rain = 0
KPD2 080705Z 00000KT 08/01 A2992 RMK A01 T00810011  RH  062%=      5-min Rain = 0
KPD2 080706Z 10001KT 08/01 A2992 RMK A01 T00790011  RH  062%=      5-min Rain = 0
KPD2 080707Z 12002KT 08/01 A2992 RMK A01 T00780011  RH  063%=      5-min Rain = 0
KPD2 080708Z 13001KT 08/01 A2992 RMK A01 T00760011  RH  063%=      5-min Rain = 0
KPD2 080709Z 11002KT 08/01 A2992 RMK A01 T00750011  RH  064%=      5-min Rain = 0
KPD2 080710Z 12003KT 07/01 A2992 RMK A01 T00740011  RH  065%=      5-min Rain = 0
KPD2 080711Z 13003KT 07/01 A2992 RMK A01 T00720011  RH  065%=      5-min Rain = 0
KPD2 080712Z 13003KT 07/01 A2992 RMK A01 T00720012  RH  065%=      5-min Rain = 0
KPD2 080713Z 13003KT 07/01 A2992 RMK A01 T00720012  RH  066%=      5-min Rain = 0
KPD2 080714Z 13002KT 07/01 A2992 RMK A01 T00710011  RH  066%=      5-min Rain = 0
KPD2 080715Z 13002KT 07/01 A2992 RMK A01 T00720012  RH  066%=      5-min Rain = 0
KPD2 080716Z 12002KT 07/01 A2992 RMK A01 T00720012  RH  065%=      5-min Rain = 0
KPD2 080717Z 11003KT 07/01 A2991 RMK A01 T00730012  RH  065%=      5-min Rain = 0
KPD2 080718Z 12002KT 07/01 A2991 RMK A01 T00730012  RH  065%=      5-min Rain = 0
KPD2 080719Z 12003KT 07/01 A2991 RMK A01 T00730011  RH  065%=      5-min Rain = 0
KPD2 080720Z 12002KT 07/01 A2991 RMK A01 T00730012  RH  065%=      5-min Rain = 0
KPD2 080721Z 13002KT 07/01 A2991 RMK A01 T00730012  RH  065%=      5-min Rain = 0
KPD2 080722Z 13002KT 07/01 A2991 RMK A01 T00730011  RH  065%=      5-min Rain = 0
KPD2 080723Z 13002KT 07/01 A2991 RMK A01 T00730011  RH  065%=      5-min Rain = 0
KPD2 080724Z 13002KT 07/01 A2991 RMK A01 T00730012  RH  065%=      5-min Rain = 0
KPD2 080725Z 13002KT 07/01 A2991 RMK A01 T00730012  RH  065%=      5-min Rain = 0
KPD2 080726Z 13002KT 07/01 A2991 RMK A01 T00730012  RH  065%=      5-min Rain = 0
KPD2 080727Z 13003KT 07/01 A2991 RMK A01 T00720012  RH  065%=      5-min Rain = 0
KPD2 080728Z 13003KT 07/01 A2991 RMK A01 T00730012  RH  065%=      5-min Rain = 0
KPD2 080729Z 13003KT 07/01 A2991 RMK A01 T00730012  RH  065%=      5-min Rain = 0
KPD2 080730Z 13003KT 07/01 A2991 RMK A01 T00730011  RH  065%=      5-min Rain = 0
KPD2 080731Z 12003KT 07/01 A2991 RMK A01 T00720012  RH  066%=      5-min Rain = 0
KPD2 080732Z 12004KT 07/01 A2991 RMK A01 T00710012  RH  066%=      5-min Rain = 0
KPD2 080733Z 11003KT 07/01 A2991 RMK A01 T00700012  RH  066%=      5-min Rain = 0
KPD2 080734Z 11003KT 07/01 A2991 RMK A01 T00700012  RH  067%=      5-min Rain = 0
KPD2 080735Z 11004KT 07/01 A2991 RMK A01 T00700013  RH  067%=      5-min Rain = 0
KPD2 080736Z 12003KT 07/01 A2991 RMK A01 T00700012  RH  067%=      5-min Rain = 0
KPD2 080737Z 13003KT 07/01 A2991 RMK A01 T00700012  RH  067%=      5-min Rain = 0
KPD2 080738Z 13003KT 07/01 A2991 RMK A01 T00700012  RH  067%=      5-min Rain = 0
KPD2 080739Z 12003KT 07/01 A2991 RMK A01 T00710012  RH  066%=      5-min Rain = 0
KPD2 080740Z 12003KT 07/01 A2991 RMK A01 T00710012  RH  066%=      5-min Rain = 0
KPD2 080741Z 12001KT 07/01 A2991 RMK A01 T00700012  RH  066%=      5-min Rain = 0
KPD2 080742Z 03001KT 07/01 A2991 RMK A01 T00700011  RH  066%=      5-min Rain = 0
KPD2 080743Z 36002KT 07/01 A2991 RMK A01 T00670006  RH  065%=      5-min Rain = 0
KPD2 080744Z 02002KT 06/00 A2991 RMK A01 T00630003  RH  066%=      5-min Rain = 0
KPD2 080745Z 01002KT 06/01 A2991 RMK A01 T00610005  RH  067%=      5-min Rain = 0
KPD2 080746Z 33002KT 06/00 A2991 RMK A01 T00590004  RH  068%=      5-min Rain = 0
KPD2 080747Z 35002KT 06/01 A2991 RMK A01 T00580005  RH  069%=      5-min Rain = 0
KPD2 080748Z 32002KT 06/01 A2991 RMK A01 T00580006  RH  070%=      5-min Rain = 0
KPD2 080749Z 30003KT 06/01 A2991 RMK A01 T00560006  RH  070%=      5-min Rain = 0
KPD2 080750Z 29003KT 06/01 A2991 RMK A01 T00560005  RH  070%=      5-min Rain = 0
KPD2 080751Z 28002KT 06/01 A2991 RMK A01 T00550005  RH  070%=      5-min Rain = 0
KPD2 080752Z 27002KT 05/01 A2991 RMK A01 T00540005  RH  071%=      5-min Rain = 0
KPD2 080753Z 27001KT 05/01 A2991 RMK A01 T00540006  RH  071%=      5-min Rain = 0
KPD2 080754Z 27001KT 05/01 A299 RMK A01 T00540007  RH  072%=      5-min Rain = 0
KPD2 080755Z 00000KT 05/01 A299 RMK A01 T00540008  RH  072%=      5-min Rain = 0
KPD2 080756Z 00000KT 05/01 A299 RMK A01 T00540008  RH  072%=      5-min Rain = 0
KPD2 080757Z 00000KT 05/01 A2991 RMK A01 T00540008  RH  072%=      5-min Rain = 0
KPD2 080758Z 00000KT 05/01 A2991 RMK A01 T00530008  RH  072%=      5-min Rain = 0
KPD2 080759Z 27000KT 05/01 A2991 RMK A01 T00530007  RH  072%=      5-min Rain = 0
KPD2 080800Z 32001KT 05/01 A2991 RMK A01 T00530008  RH  073%=      5-min Rain = 0
KPD2 080801Z 34002KT 05/01 A2991 RMK A01 T00530008  RH  073%=      5-min Rain = 0
KPD2 080802Z 34002KT 05/01 A2991 RMK A01 T00530008  RH  073%=      5-min Rain = 0
KPD2 080803Z 33003KT 05/01 A2991 RMK A01 T00530008  RH  073%=      5-min Rain = 0
KPD2 080804Z 34003KT 05/01 A2991 RMK A01 T00530008  RH  073%=      5-min Rain = 0
KPD2 080805Z 34002KT 05/01 A2991 RMK A01 T00520007  RH  073%=      5-min Rain = 0
KPD2 080806Z 33003KT 05/01 A2992 RMK A01 T00520008  RH  073%=      5-min Rain = 0
KPD2 080807Z 33003KT 05/01 A2992 RMK A01 T00520009  RH  074%=      5-min Rain = 0
KPD2 080808Z 33002KT 05/01 A2992 RMK A01 T00530009  RH  073%=      5-min Rain = 0
KPD2 080809Z 30003KT 05/01 A2992 RMK A01 T00530009  RH  073%=      5-min Rain = 0
KPD2 080810Z 31002KT 05/01 A2992 RMK A01 T00520008  RH  073%=      5-min Rain = 0
KPD2 080811Z 32002KT 05/01 A2992 RMK A01 T00510007  RH  073%=      5-min Rain = 0
KPD2 080812Z 32002KT 05/01 A2992 RMK A01 T00510007  RH  073%=      5-min Rain = 0
KPD2 080813Z 32003KT 05/01 A2992 RMK A01 T00510008  RH  074%=      5-min Rain = 0
KPD2 080814Z 33002KT 05/01 A2992 RMK A01 T00510009  RH  074%=      5-min Rain = 0
KPD2 080815Z 01002KT 05/01 A2992 RMK A01 T00520010  RH  074%=      5-min Rain = 0
KPD2 080816Z 36001KT 06/01 A2992 RMK A01 T00550012  RH  074%=      5-min Rain = 0
KPD2 080817Z 32003KT 06/01 A2992 RMK A01 T00560010  RH  072%=      5-min Rain = 0
KPD2 080818Z 31001KT 06/01 A2992 RMK A01 T00550009  RH  072%=      5-min Rain = 0
KPD2 080819Z 31001KT 06/01 A2992 RMK A01 T00550009  RH  072%=      5-min Rain = 0
KPD2 080820Z 26002KT 05/01 A2992 RMK A01 T00540009  RH  073%=      5-min Rain = 0
KPD2 080821Z 26003KT 06/01 A2992 RMK A01 T00550009  RH  073%=      5-min Rain = 0
KPD2 080822Z 26003KT 06/01 A2992 RMK A01 T00550009  RH  072%=      5-min Rain = 0
KPD2 080823Z 26003KT 06/01 A2993 RMK A01 T00550008  RH  072%=      5-min Rain = 0
KPD2 080824Z 27001KT 05/01 A2992 RMK A01 T00540006  RH  071%=      5-min Rain = 0
KPD2 080825Z 29001KT 05/01 A2992 RMK A01 T00520006  RH  072%=      5-min Rain = 0
KPD2 080826Z 34003KT 05/01 A2992 RMK A01 T00510006  RH  073%=      5-min Rain = 0
KPD2 080827Z 36003KT 05/01 A2992 RMK A01 T00500006  RH  073%=      5-min Rain = 0
KPD2 080828Z 00003KT 05/01 A2992 RMK A01 T00490006  RH  073%=      5-min Rain = 0
KPD2 080829Z 36002KT 05/01 A2992 RMK A01 T00480005  RH  074%=      5-min Rain = 0
KPD2 080830Z 36002KT 05/01 A2992 RMK A01 T00480006  RH  074%=      5-min Rain = 0
KPD2 080831Z 35002KT 05/01 A2992 RMK A01 T00470007  RH  075%=      5-min Rain = 0
KPD2 080832Z 35001KT 05/01 A2992 RMK A01 T00480007  RH  075%=      5-min Rain = 0
KPD2 080833Z 00002KT 05/01 A2992 RMK A01 T00480007  RH  075%=      5-min Rain = 0
KPD2 080834Z 00002KT 05/01 A2992 RMK A01 T00480007  RH  075%=      5-min Rain = 0
KPD2 080835Z 35002KT 05/01 A2992 RMK A01 T00490008  RH  075%=      5-min Rain = 0
KPD2 080836Z 35001KT 05/01 A2992 RMK A01 T00490007  RH  074%=      5-min Rain = 0
KPD2 080837Z 26002KT 05/01 A2991 RMK A01 T00480005  RH  074%=      5-min Rain = 0
KPD2 080838Z 26002KT 05/00 A2991 RMK A01 T00460004  RH  074%=      5-min Rain = 0
KPD2 080839Z 26002KT 05/00 A2991 RMK A01 T00450003  RH  074%=      5-min Rain = 0
KPD2 080840Z 25002KT 05/00 A2991 RMK A01 T00450003  RH  074%=      5-min Rain = 0
KPD2 080841Z 25001KT 04/00 A2991 RMK A01 T00440003  RH  075%=      5-min Rain = 0
KPD2 080842Z 00000KT 04/00 A2991 RMK A01 T00430004  RH  075%=      5-min Rain = 0
KPD2 080843Z 25000KT 04/00 A2991 RMK A01 T00430004  RH  076%=      5-min Rain = 0
KPD2 080844Z 28000KT 04/01 A2991 RMK A01 T00430005  RH  076%=      5-min Rain = 0
KPD2 080845Z 30000KT 04/01 A2991 RMK A01 T00430005  RH  077%=      5-min Rain = 0
KPD2 080846Z 35002KT 04/01 A2991 RMK A01 T00430006  RH  077%=      5-min Rain = 0
KPD2 080847Z 02002KT 04/01 A2991 RMK A01 T00430007  RH  077%=      5-min Rain = 0
KPD2 080848Z 35002KT 04/01 A2991 RMK A01 T00440006  RH  077%=      5-min Rain = 0
KPD2 080849Z 34002KT 04/01 A2991 RMK A01 T00440006  RH  076%=      5-min Rain = 0
KPD2 080850Z 36003KT 04/01 A2991 RMK A01 T00440005  RH  076%=      5-min Rain = 0
KPD2 080851Z 35002KT 04/01 A2991 RMK A01 T00430006  RH  076%=      5-min Rain = 0
KPD2 080852Z 34003KT 04/01 A2991 RMK A01 T00430006  RH  077%=      5-min Rain = 0
KPD2 080853Z 35002KT 04/01 A2991 RMK A01 T00420005  RH  077%=      5-min Rain = 0
KPD2 080854Z 33003KT 04/01 A2991 RMK A01 T00440008  RH  077%=      5-min Rain = 0
KPD2 080855Z 34003KT 05/01 A2991 RMK A01 T00460008  RH  077%=      5-min Rain = 0
KPD2 080856Z 33004KT 05/01 A2991 RMK A01 T00470008  RH  076%=      5-min Rain = 0
KPD2 080857Z 35002KT 05/01 A2991 RMK A01 T00460006  RH  075%=      5-min Rain = 0
KPD2 080858Z 31004KT 05/01 A2991 RMK A01 T00450005  RH  075%=      5-min Rain = 0
KPD2 080859Z 31002KT 04/01 A2991 RMK A01 T00440005  RH  076%=      5-min Rain = 0
KPD2 080900Z 30002KT 04/00 A299 RMK A01 T00430004  RH  076%=      5-min Rain = 0
KPD2 080901Z 30003KT 04/00 A2991 RMK A01 T00420004  RH  076%=      5-min Rain = 0
KPD2 080902Z 30002KT 04/01 A2991 RMK A01 T00420005  RH  077%=      5-min Rain = 0
KPD2 080903Z 30003KT 04/01 A2991 RMK A01 T00420005  RH  077%=      5-min Rain = 0
KPD2 080904Z 30003KT 04/01 A2991 RMK A01 T00420005  RH  077%=      5-min Rain = 0
KPD2 080905Z 31003KT 04/00 A2991 RMK A01 T00410004  RH  077%=      5-min Rain = 0
KPD2 080906Z 33004KT 04/00 A2991 RMK A01 T00400003  RH  077%=      5-min Rain = 0
KPD2 080907Z 34004KT 04/00 A2991 RMK A01 T00390003  RH  077%=      5-min Rain = 0
KPD2 080908Z 35004KT 04/00 A299 RMK A01 T00380003  RH  078%=      5-min Rain = 0
KPD2 080909Z 35005KT 04/00 A299 RMK A01 T00380003  RH  078%=      5-min Rain = 0
KPD2 080910Z 34004KT 04/00 A299 RMK A01 T00380004  RH  079%=      5-min Rain = 0
KPD2 080911Z 35004KT 04/01 A299 RMK A01 T00380005  RH  079%=      5-min Rain = 0
KPD2 080912Z 36004KT 04/01 A299 RMK A01 T00390006  RH  079%=      5-min Rain = 0
KPD2 080913Z 35005KT 04/01 A299 RMK A01 T00400007  RH  079%=      5-min Rain = 0
KPD2 080914Z 36005KT 04/01 A299 RMK A01 T00420008  RH  078%=      5-min Rain = 0
KPD2 080915Z 35004KT 04/01 A299 RMK A01 T00420006  RH  078%=      5-min Rain = 0
KPD2 080916Z 32004KT 04/01 A299 RMK A01 T00430007  RH  078%=      5-min Rain = 0
KPD2 080917Z 31004KT 04/01 A299 RMK A01 T00440009  RH  078%=      5-min Rain = 0
KPD2 080918Z 29004KT 05/01 A299 RMK A01 T00450009  RH  077%=      5-min Rain = 0
KPD2 080919Z 27004KT 05/01 A299 RMK A01 T00460008  RH  076%=      5-min Rain = 0
KPD2 080920Z 27006KT 05/01 A299 RMK A01 T00460007  RH  076%=      5-min Rain = 0
KPD2 080921Z 27005KT 05/01 A299 RMK A01 T00460007  RH  076%=      5-min Rain = 0
KPD2 080922Z 27003KT 05/01 A299 RMK A01 T00470008  RH  076%=      5-min Rain = 0
KPD2 080923Z 28004KT 05/01 A299 RMK A01 T00470008  RH  076%=      5-min Rain = 0
KPD2 080924Z 30004KT 05/01 A299 RMK A01 T00480008  RH  075%=      5-min Rain = 0
KPD2 080925Z 34004KT 05/01 A299 RMK A01 T00460006  RH  075%=      5-min Rain = 0
KPD2 080926Z 36005KT 05/01 A299 RMK A01 T00450006  RH  075%=      5-min Rain = 0
KPD2 080927Z 36004KT 05/01 A299 RMK A01 T00450007  RH  076%=      5-min Rain = 0
KPD2 080928Z 36004KT 05/01 A299 RMK A01 T00460008  RH  076%=      5-min Rain = 0
KPD2 080929Z 36004KT 05/01 A299 RMK A01 T00480009  RH  076%=      5-min Rain = 0
KPD2 080930Z 33004KT 05/01 A299 RMK A01 T00480009  RH  076%=      5-min Rain = 0
KPD2 080931Z 32003KT 05/01 A299 RMK A01 T00490009  RH  075%=      5-min Rain = 0
KPD2 080932Z 33003KT 05/01 A299 RMK A01 T00500009  RH  075%=      5-min Rain = 0
KPD2 080933Z 35004KT 05/01 A2989 RMK A01 T00500009  RH  075%=      5-min Rain = 0
KPD2 080934Z 34004KT 05/01 A2989 RMK A01 T00510009  RH  075%=      5-min Rain = 0
KPD2 080935Z 34004KT 05/01 A2989 RMK A01 T00510009  RH  075%=      5-min Rain = 0
KPD2 080936Z 34004KT 05/01 A2989 RMK A01 T00510009  RH  075%=      5-min Rain = 0
KPD2 080937Z 33004KT 05/01 A2989 RMK A01 T00510009  RH  075%=      5-min Rain = 0
KPD2 080938Z 33005KT 05/01 A2989 RMK A01 T00520011  RH  074%=      5-min Rain = 0
KPD2 080939Z 33004KT 05/01 A2989 RMK A01 T00530011  RH  074%=      5-min Rain = 0
KPD2 080940Z 31003KT 05/01 A2989 RMK A01 T00540011  RH  074%=      5-min Rain = 0
KPD2 080941Z 29003KT 06/01 A2989 RMK A01 T00550011  RH  073%=      5-min Rain = 0
KPD2 080942Z 27003KT 05/01 A2988 RMK A01 T00540009  RH  073%=      5-min Rain = 0
KPD2 080943Z 28003KT 05/01 A2988 RMK A01 T00530008  RH  073%=      5-min Rain = 0
KPD2 080944Z 28003KT 05/01 A2988 RMK A01 T00530008  RH  073%=      5-min Rain = 0
KPD2 080945Z 27003KT 05/01 A2988 RMK A01 T00520008  RH  073%=      5-min Rain = 0
KPD2 080946Z 30002KT 05/01 A2988 RMK A01 T00520009  RH  074%=      5-min Rain = 0
KPD2 080947Z 31003KT 05/01 A2988 RMK A01 T00520009  RH  074%=      5-min Rain = 0
KPD2 080948Z 31003KT 05/01 A2988 RMK A01 T00510009  RH  074%=      5-min Rain = 0
KPD2 080949Z 32003KT 05/01 A2988 RMK A01 T00510009  RH  074%=      5-min Rain = 0
KPD2 080950Z 33003KT 05/01 A2988 RMK A01 T00510009  RH  074%=      5-min Rain = 0
KPD2 080951Z 34004KT 05/01 A2988 RMK A01 T00510009  RH  074%=      5-min Rain = 0
KPD2 080952Z 35004KT 05/01 A2988 RMK A01 T00510009  RH  074%=      5-min Rain = 0
KPD2 080953Z 35005KT 05/01 A2988 RMK A01 T00510010  RH  075%=      5-min Rain = 0
KPD2 080954Z 36005KT 05/01 A2988 RMK A01 T00510010  RH  075%=      5-min Rain = 0
KPD2 080955Z 35006KT 05/01 A2989 RMK A01 T00530011  RH  075%=      5-min Rain = 0
KPD2 080956Z 35005KT 06/01 A2989 RMK A01 T00550013  RH  074%=      5-min Rain = 0
KPD2 080957Z 36005KT 06/01 A2989 RMK A01 T00580014  RH  073%=      5-min Rain = 0
KPD2 080958Z 34005KT 06/02 A2989 RMK A01 T00610015  RH  072%=      5-min Rain = 0
KPD2 080959Z 35005KT 06/02 A2989 RMK A01 T00630015  RH  071%=      5-min Rain = 0
KPD2 081000Z 34005KT 07/01 A2989 RMK A01 T00650014  RH  070%=      5-min Rain = 0
KPD2 081001Z 35004KT 07/01 A2989 RMK A01 T00660014  RH  070%=      5-min Rain = 0
KPD2 081002Z 34005KT 07/01 A2989 RMK A01 T00670014  RH  069%=      5-min Rain = 0
KPD2 081003Z 34005KT 07/02 A2989 RMK A01 T00690015  RH  069%=      5-min Rain = 0
KPD2 081004Z 35006KT 07/02 A2988 RMK A01 T00700015  RH  068%=      5-min Rain = 0
KPD2 081005Z 36006KT 07/02 A2988 RMK A01 T00730015  RH  066%=      5-min Rain = 0
KPD2 081006Z 34004KT 08/02 A2988 RMK A01 T00750015  RH  066%=      5-min Rain = 0
KPD2 081007Z 32004KT 08/02 A2988 RMK A01 T00780015  RH  064%=      5-min Rain = 0
KPD2 081008Z 31003KT 08/02 A2988 RMK A01 T00790015  RH  064%=      5-min Rain = 0
KPD2 081009Z 31003KT 08/01 A2988 RMK A01 T00790014  RH  064%=      5-min Rain = 0
KPD2 081010Z 32004KT 08/01 A2988 RMK A01 T00780014  RH  064%=      5-min Rain = 0
KPD2 081011Z 30003KT 08/01 A2988 RMK A01 T00780014  RH  064%=      5-min Rain = 0
KPD2 081012Z 27002KT 08/01 A2988 RMK A01 T00770013  RH  064%=      5-min Rain = 0
KPD2 081013Z 29000KT 08/01 A2988 RMK A01 T00750012  RH  064%=      5-min Rain = 0
KPD2 081014Z 29002KT 07/01 A2988 RMK A01 T00740012  RH  065%=      5-min Rain = 0
KPD2 081015Z 31004KT 07/01 A2988 RMK A01 T00730012  RH  065%=      5-min Rain = 0
KPD2 081016Z 36003KT 07/01 A2987 RMK A01 T00710012  RH  066%=      5-min Rain = 0
KPD2 081017Z 01002KT 07/01 A2987 RMK A01 T00700012  RH  066%=      5-min Rain = 0
KPD2 081018Z 31002KT 07/01 A2987 RMK A01 T00700012  RH  067%=      5-min Rain = 0
KPD2 081019Z 31002KT 07/01 A2987 RMK A01 T00700012  RH  067%=      5-min Rain = 0
KPD2 081020Z 31002KT 07/01 A2987 RMK A01 T00700012  RH  067%=      5-min Rain = 0
KPD2 081021Z 30002KT 07/01 A2987 RMK A01 T00690012  RH  067%=      5-min Rain = 0
KPD2 081022Z 26002KT 07/01 A2987 RMK A01 T00680012  RH  067%=      5-min Rain = 0
KPD2 081023Z 25001KT 07/01 A2987 RMK A01 T00670012  RH  068%=      5-min Rain = 0
KPD2 081024Z 12003KT 07/01 A2987 RMK A01 T00660012  RH  069%=      5-min Rain = 0
KPD2 081025Z 11002KT 07/01 A2988 RMK A01 T00650013  RH  069%=      5-min Rain = 0
KPD2 081026Z 11003KT 07/01 A2987 RMK A01 T00650013  RH  070%=      5-min Rain = 0
KPD2 081027Z 09002KT 06/01 A2987 RMK A01 T00640012  RH  069%=      5-min Rain = 0
KPD2 081028Z 10001KT 06/01 A2987 RMK A01 T00640012  RH  069%=      5-min Rain = 0
KPD2 081029Z 10001KT 06/01 A2987 RMK A01 T00640012  RH  070%=      5-min Rain = 0
KPD2 081030Z 13002KT 06/01 A2987 RMK A01 T00640013  RH  070%=      5-min Rain = 0
KPD2 081031Z 14003KT 06/01 A2987 RMK A01 T00640013  RH  070%=      5-min Rain = 0
KPD2 081032Z 14003KT 06/01 A2987 RMK A01 T00640013  RH  070%=      5-min Rain = 0
KPD2 081033Z 13003KT 06/01 A2987 RMK A01 T00630013  RH  070%=      5-min Rain = 0
KPD2 081034Z 12003KT 06/01 A2987 RMK A01 T00630013  RH  070%=      5-min Rain = 0
KPD2 081035Z 14002KT 06/01 A2987 RMK A01 T00630013  RH  070%=      5-min Rain = 0
KPD2 081036Z 14003KT 06/01 A2987 RMK A01 T00640012  RH  070%=      5-min Rain = 0
KPD2 081037Z 13002KT 06/01 A2987 RMK A01 T00630012  RH  070%=      5-min Rain = 0
KPD2 081038Z 13002KT 06/01 A2987 RMK A01 T00630012  RH  070%=      5-min Rain = 0
KPD2 081039Z 13001KT 06/01 A2987 RMK A01 T00630012  RH  070%=      5-min Rain = 0
KPD2 081040Z 13001KT 06/01 A2987 RMK A01 T00640012  RH  070%=      5-min Rain = 0
KPD2 081041Z 25001KT 06/01 A2987 RMK A01 T00640012  RH  070%=      5-min Rain = 0
KPD2 081042Z 27000KT 06/01 A2987 RMK A01 T00630012  RH  070%=      5-min Rain = 0
KPD2 081043Z 16002KT 06/01 A2986 RMK A01 T00620012  RH  070%=      5-min Rain = 0
KPD2 081044Z 14001KT 06/01 A2986 RMK A01 T00620013  RH  071%=      5-min Rain = 0
KPD2 081045Z 14000KT 06/01 A2986 RMK A01 T00620013  RH  071%=      5-min Rain = 0
KPD2 081046Z 14001KT 06/01 A2986 RMK A01 T00620012  RH  071%=      5-min Rain = 0
KPD2 081047Z 14001KT 06/01 A2986 RMK A01 T00620013  RH  071%=      5-min Rain = 0
KPD2 081048Z 00000KT 06/01 A2986 RMK A01 T00610013  RH  071%=      5-min Rain = 0
KPD2 081049Z 14000KT 06/01 A2986 RMK A01 T00610012  RH  071%=      5-min Rain = 0
KPD2 081050Z 14002KT 06/01 A2986 RMK A01 T00610012  RH  071%=      5-min Rain = 0
KPD2 081051Z 13001KT 06/01 A2986 RMK A01 T00610012  RH  071%=      5-min Rain = 0
KPD2 081052Z 36004KT 06/01 A2986 RMK A01 T00600012  RH  071%=      5-min Rain = 0
KPD2 081053Z 02005KT 06/01 A2986 RMK A01 T00600012  RH  072%=      5-min Rain = 0
KPD2 081054Z 01006KT 06/01 A2986 RMK A01 T00590013  RH  072%=      5-min Rain = 0
KPD2 081055Z 00007KT 06/01 A2986 RMK A01 T00600013  RH  072%=      5-min Rain = 0
KPD2 081056Z 01008KT 06/01 A2986 RMK A01 T00620014  RH  072%=      5-min Rain = 0
KPD2 081057Z 01006KT 07/02 A2986 RMK A01 T00650015  RH  070%=      5-min Rain = 0
KPD2 081058Z 35004KT 07/02 A2986 RMK A01 T00680015  RH  069%=      5-min Rain = 0
KPD2 081059Z 35004KT 07/02 A2986 RMK A01 T00710015  RH  068%=      5-min Rain = 0
KPD2 081100Z 36003KT 07/02 A2986 RMK A01 T00730015  RH  067%=      5-min Rain = 0
KPD2 081101Z 32004KT 07/01 A2986 RMK A01 T00740014  RH  066%=      5-min Rain = 0
KPD2 081102Z 29004KT 08/01 A2986 RMK A01 T00750014  RH  065%=      5-min Rain = 0
KPD2 081103Z 29004KT 08/01 A2986 RMK A01 T00750014  RH  065%=      5-min Rain = 0
KPD2 081104Z 29004KT 07/01 A2986 RMK A01 T00740013  RH  065%=      5-min Rain = 0
KPD2 081105Z 30004KT 07/01 A2986 RMK A01 T00720012  RH  066%=      5-min Rain = 0
KPD2 081106Z 31004KT 07/01 A2986 RMK A01 T00700013  RH  067%=      5-min Rain = 0
KPD2 081107Z 32004KT 07/01 A2986 RMK A01 T00680013  RH  068%=      5-min Rain = 0
KPD2 081108Z 32004KT 07/01 A2986 RMK A01 T00670013  RH  068%=      5-min Rain = 0
KPD2 081109Z 34004KT 07/01 A2986 RMK A01 T00660013  RH  069%=      5-min Rain = 0
KPD2 081110Z 34004KT 07/01 A2987 RMK A01 T00660013  RH  069%=      5-min Rain = 0
KPD2 081111Z 31003KT 07/01 A2986 RMK A01 T00660014  RH  069%=      5-min Rain = 0
KPD2 081112Z 29004KT 07/01 A2986 RMK A01 T00660014  RH  069%=      5-min Rain = 0
KPD2 081113Z 28004KT 07/01 A2986 RMK A01 T00670014  RH  069%=      5-min Rain = 0
KPD2 081114Z 28004KT 07/01 A2986 RMK A01 T00670013  RH  069%=      5-min Rain = 0
KPD2 081115Z 29004KT 07/01 A2986 RMK A01 T00670013  RH  069%=      5-min Rain = 0
KPD2 081116Z 28004KT 07/01 A2986 RMK A01 T00660013  RH  069%=      5-min Rain = 0
KPD2 081117Z 30004KT 07/01 A2986 RMK A01 T00660013  RH  069%=      5-min Rain = 0
KPD2 081118Z 31004KT 07/01 A2986 RMK A01 T00660014  RH  069%=      5-min Rain = 0
KPD2 081119Z 32005KT 07/01 A2986 RMK A01 T00650014  RH  070%=      5-min Rain = 0
KPD2 081120Z 33005KT 07/01 A2986 RMK A01 T00650013  RH  070%=      5-min Rain = 0
KPD2 081121Z 34004KT 06/01 A2986 RMK A01 T00640014  RH  070%=      5-min Rain = 0
KPD2 081122Z 34004KT 06/01 A2986 RMK A01 T00640014  RH  070%=      5-min Rain = 0
KPD2 081123Z 34004KT 06/01 A2986 RMK A01 T00640014  RH  070%=      5-min Rain = 0
KPD2 081124Z 34005KT 07/02 A2986 RMK A01 T00650015  RH  070%=      5-min Rain = 0
KPD2 081125Z 33005KT 07/02 A2986 RMK A01 T00680015  RH  069%=      5-min Rain = 0
KPD2 081126Z 32005KT 07/02 A2986 RMK A01 T00710016  RH  068%=      5-min Rain = 0
KPD2 081127Z 30005KT 07/02 A2986 RMK A01 T00730016  RH  067%=      5-min Rain = 0
KPD2 081128Z 29003KT 07/02 A2986 RMK A01 T00740015  RH  066%=      5-min Rain = 0
KPD2 081129Z 29004KT 07/01 A2986 RMK A01 T00720013  RH  066%=      5-min Rain = 0
KPD2 081130Z 30005KT 07/01 A2986 RMK A01 T00710013  RH  067%=      5-min Rain = 0
KPD2 081131Z 31005KT 07/01 A2986 RMK A01 T00710013  RH  067%=      5-min Rain = 0
KPD2 081132Z 31004KT 07/01 A2986 RMK A01 T00700013  RH  067%=      5-min Rain = 0
KPD2 081133Z 32004KT 07/01 A2986 RMK A01 T00700013  RH  067%=      5-min Rain = 0
KPD2 081134Z 32005KT 07/01 A2986 RMK A01 T00690013  RH  067%=      5-min Rain = 0
KPD2 081135Z 32006KT 07/01 A2986 RMK A01 T00690013  RH  068%=      5-min Rain = 0
KPD2 081136Z 32006KT 07/01 A2986 RMK A01 T00690014  RH  068%=      5-min Rain = 0
KPD2 081137Z 32005KT 07/01 A2986 RMK A01 T00700014  RH  067%=      5-min Rain = 0
KPD2 081138Z 32005KT 07/01 A2986 RMK A01 T00710014  RH  067%=      5-min Rain = 0
KPD2 081139Z 33005KT 07/01 A2986 RMK A01 T00730014  RH  066%=      5-min Rain = 0
KPD2 081140Z 34005KT 07/02 A2986 RMK A01 T00740015  RH  066%=      5-min Rain = 0
KPD2 081141Z 33005KT 08/02 A2987 RMK A01 T00760015  RH  066%=      5-min Rain = 0
KPD2 081142Z 33005KT 08/02 A2987 RMK A01 T00780016  RH  065%=      5-min Rain = 0
KPD2 081143Z 33005KT 08/02 A2987 RMK A01 T00800016  RH  064%=      5-min Rain = 0
KPD2 081144Z 33005KT 08/02 A2987 RMK A01 T00820016  RH  063%=      5-min Rain = 0
KPD2 081145Z 33006KT 09/02 A2987 RMK A01 T00850017  RH  062%=      5-min Rain = 0
KPD2 081146Z 33006KT 09/02 A2987 RMK A01 T00870017  RH  061%=      5-min Rain = 0
KPD2 081147Z 33006KT 09/02 A2987 RMK A01 T00900017  RH  060%=      5-min Rain = 0
KPD2 081148Z 34006KT 09/02 A2987 RMK A01 T00920017  RH  059%=      5-min Rain = 0
KPD2 081149Z 34006KT 09/02 A2987 RMK A01 T00930016  RH  059%=      5-min Rain = 0
KPD2 081150Z 35007KT 09/02 A2987 RMK A01 T00940016  RH  058%=      5-min Rain = 0
KPD2 081151Z 35007KT 10/02 A2987 RMK A01 T00950016  RH  058%=      5-min Rain = 0
KPD2 081152Z 35008KT 10/02 A2987 RMK A01 T00960016  RH  057%=      5-min Rain = 0
KPD2 081153Z 36008KT 10/02 A2987 RMK A01 T00980016  RH  057%=      5-min Rain = 0
KPD2 081154Z 35008KT 10/02 A2987 RMK A01 T00990016  RH  056%=      5-min Rain = 0
KPD2 081155Z 35008KT 10/02 A2986 RMK A01 T01010016  RH  056%=      5-min Rain = 0
KPD2 081156Z 35009KT 10/02 A2986 RMK A01 T01030017  RH  055%=      5-min Rain = 0
KPD2 081157Z 35009KT 11/02 A2986 RMK A01 T01050016  RH  054%=      5-min Rain = 0
KPD2 081158Z 35009KT 11/02 A2986 RMK A01 T01080017  RH  053%=      5-min Rain = 0
KPD2 081159Z 35010KT 11/02 A2986 RMK A01 T01100017  RH  053%=      5-min Rain = 0
KPD2 081200Z 35008KT 11/02 A2986 RMK A01 T01110016  RH  052%=      5-min Rain = 0
KPD2 081201Z 34007KT 11/02 A2986 RMK A01 T01140016  RH  051%=      5-min Rain = 0
KPD2 081202Z 33009KT 12/02 A2986 RMK A01 T01160017  RH  050%=      5-min Rain = 0
KPD2 081203Z 33007KT 12/02 A2986 RMK A01 T01170016  RH  050%=      5-min Rain = 0
KPD2 081204Z 36009KT 12/02 A2986 RMK A01 T01180016  RH  050%=      5-min Rain = 0
KPD2 081205Z 35009KT 12/02 A2986 RMK A01 T01180016  RH  050%=      5-min Rain = 0
KPD2 081206Z 34008KT 12/02 A2986 RMK A01 T01190015  RH  049%=      5-min Rain = 0
KPD2 081207Z 34007KT 12/02 A2986 RMK A01 T01200016  RH  049%=      5-min Rain = 0
KPD2 081208Z 34008KT 12/02 A2986 RMK A01 T01200016  RH  049%=      5-min Rain = 0
KPD2 081209Z 34010KT 12/02 A2986 RMK A01 T01210016  RH  048%=      5-min Rain = 0
KPD2 081210Z 35009KT 12/02 A2986 RMK A01 T01220015  RH  048%=      5-min Rain = 0
KPD2 081211Z 34013KT 12/02 A2986 RMK A01 T01230015  RH  048%=      5-min Rain = 0
KPD2 081212Z 34011KT 13/02 A2986 RMK A01 T01250016  RH  047%=      5-min Rain = 0
KPD2 081213Z 35010KT 13/02 A2986 RMK A01 T01270015  RH  046%=      5-min Rain = 0
KPD2 081214Z 34010KT 13/02 A2986 RMK A01 T01280015  RH  046%=      5-min Rain = 0
KPD2 081215Z 33010KT 13/02 A2986 RMK A01 T01280016  RH  046%=      5-min Rain = 0
KPD2 081216Z 33010KT 13/02 A2986 RMK A01 T01280016  RH  046%=      5-min Rain = 0
KPD2 081217Z 33009KT 13/02 A2986 RMK A01 T01280015  RH  046%=      5-min Rain = 0
KPD2 081218Z 33008KT 13/02 A2986 RMK A01 T01280015  RH  046%=      5-min Rain = 0
KPD2 081219Z 33009KT 13/02 A2986 RMK A01 T01280015  RH  046%=      5-min Rain = 0
KPD2 081220Z 33009KT 13/02 A2986 RMK A01 T01280015  RH  046%=      5-min Rain = 0
KPD2 081221Z 33008KT 13/02 A2986 RMK A01 T01280015  RH  046%=      5-min Rain = 0
KPD2 081222Z 33008KT 13/02 A2986 RMK A01 T01280015  RH  046%=      5-min Rain = 0
KPD2 081223Z 33009KT 13/02 A2986 RMK A01 T01280015  RH  046%=      5-min Rain = 0
KPD2 081224Z 33008KT 13/02 A2986 RMK A01 T01280015  RH  046%=      5-min Rain = 0
KPD2 081225Z 33008KT 13/02 A2986 RMK A01 T01290015  RH  046%=      5-min Rain = 0
KPD2 081226Z 33011KT 13/02 A2986 RMK A01 T01290015  RH  046%=      5-min Rain = 0
KPD2 081227Z 34009KT 13/01 A2986 RMK A01 T01290014  RH  045%=      5-min Rain = 0
KPD2 081228Z 34011KT 13/02 A2986 RMK A01 T01310015  RH  045%=      5-min Rain = 0
KPD2 081229Z 33009KT 13/02 A2986 RMK A01 T01320015  RH  045%=      5-min Rain = 0
KPD2 081230Z 33008KT 13/02 A2986 RMK A01 T01320015  RH  045%=      5-min Rain = 0
KPD2 081231Z 34011KT 13/02 A2986 RMK A01 T01320015  RH  045%=      5-min Rain = 0
KPD2 081232Z 33012KT 13/02 A2985 RMK A01 T01320015  RH  045%=      5-min Rain = 0
KPD2 081233Z 33010KT 13/02 A2986 RMK A01 T01330015  RH  045%=      5-min Rain = 0
KPD2 081234Z 33008KT 13/02 A2986 RMK A01 T01330015  RH  045%=      5-min Rain = 0
KPD2 081235Z 33009KT 13/02 A2986 RMK A01 T01340015  RH  045%=      5-min Rain = 0
KPD2 081236Z 33010KT 13/02 A2985 RMK A01 T01340015  RH  045%=      5-min Rain = 0
KPD2 081237Z 34008KT 13/02 A2985 RMK A01 T01330015  RH  044%=      5-min Rain = 0
KPD2 081238Z 33008KT 13/02 A2985 RMK A01 T01330015  RH  044%=      5-min Rain = 0
KPD2 081239Z 33007KT 13/02 A2985 RMK A01 T01340015  RH  044%=      5-min Rain = 0
KPD2 081240Z 32009KT 13/02 A2985 RMK A01 T01340015  RH  044%=      5-min Rain = 0
KPD2 081241Z 31007KT 13/02 A2985 RMK A01 T01330015  RH  044%=      5-min Rain = 0
KPD2 081242Z 32008KT 13/02 A2986 RMK A01 T01330015  RH  045%=      5-min Rain = 0
KPD2 081243Z 34008KT 13/02 A2986 RMK A01 T01320015  RH  045%=      5-min Rain = 0
KPD2 081244Z 34007KT 13/02 A2986 RMK A01 T01320015  RH  045%=      5-min Rain = 0
KPD2 081245Z 34007KT 13/02 A2986 RMK A01 T01320016  RH  045%=      5-min Rain = 0
KPD2 081246Z 34011KT 13/02 A2986 RMK A01 T01320015  RH  045%=      5-min Rain = 0
KPD2 081247Z 33010KT 13/02 A2986 RMK A01 T01330015  RH  045%=      5-min Rain = 0
KPD2 081248Z 33008KT 13/02 A2986 RMK A01 T01340016  RH  045%=      5-min Rain = 0
KPD2 081249Z 33007KT 13/02 A2986 RMK A01 T01340016  RH  045%=      5-min Rain = 0
KPD2 081250Z 34010KT 13/02 A2986 RMK A01 T01330016  RH  045%=      5-min Rain = 0
KPD2 081251Z 34009KT 13/02 A2986 RMK A01 T01320015  RH  045%=      5-min Rain = 0
KPD2 081252Z 33008KT 13/02 A2986 RMK A01 T01330015  RH  045%=      5-min Rain = 0
KPD2 081253Z 33009KT 13/02 A2986 RMK A01 T01340015  RH  044%=      5-min Rain = 0
KPD2 081254Z 33009KT 13/02 A2986 RMK A01 T01340015  RH  044%=      5-min Rain = 0
KPD2 081255Z 33007KT 14/02 A2986 RMK A01 T01350015  RH  044%=      5-min Rain = 0
KPD2 081256Z 33007KT 14/02 A2986 RMK A01 T01350015  RH  044%=      5-min Rain = 0
KPD2 081257Z 34008KT 13/02 A2986 RMK A01 T01340016  RH  044%=      5-min Rain = 0
KPD2 081258Z 34009KT 13/02 A2986 RMK A01 T01340015  RH  044%=      5-min Rain = 0
KPD2 081259Z 33011KT 13/02 A2986 RMK A01 T01340016  RH  044%=      5-min Rain = 0
KPD2 081300Z 34010KT 14/02 A2986 RMK A01 T01350016  RH  044%=      5-min Rain = 0
KPD2 081301Z 33007KT 14/02 A2986 RMK A01 T01360015  RH  044%=      5-min Rain = 0
KPD2 081302Z 34012G17KT 14/02 A2986 RMK A01 T01370016  RH  044%=      5-min Rain = 0
KPD2 081303Z 34010KT 14/02 A2986 RMK A01 T01380015  RH  043%=      5-min Rain = 0
KPD2 081304Z 33009KT 14/02 A2986 RMK A01 T01390015  RH  043%=      5-min Rain = 0
KPD2 081305Z 33007KT 14/02 A2986 RMK A01 T01390015  RH  043%=      5-min Rain = 0
KPD2 081306Z 34009KT 14/02 A2986 RMK A01 T01390015  RH  043%=      5-min Rain = 0
KPD2 081307Z 34010KT 14/02 A2986 RMK A01 T01380015  RH  043%=      5-min Rain = 0
KPD2 081308Z 35011KT 14/02 A2986 RMK A01 T01390015  RH  043%=      5-min Rain = 0
KPD2 081309Z 34009KT 14/02 A2986 RMK A01 T01390015  RH  043%=      5-min Rain = 0
KPD2 081310Z 35010KT 14/02 A2986 RMK A01 T01390015  RH  043%=      5-min Rain = 0
KPD2 081311Z 34009KT 14/02 A2986 RMK A01 T01390016  RH  043%=      5-min Rain = 0
KPD2 081312Z 34011KT 14/02 A2985 RMK A01 T01380015  RH  043%=      5-min Rain = 0
KPD2 081313Z 34010KT 14/02 A2985 RMK A01 T01380015  RH  043%=      5-min Rain = 0
KPD2 081314Z 34010KT 14/02 A2985 RMK A01 T01390016  RH  043%=      5-min Rain = 0
KPD2 081315Z 34010KT 14/02 A2986 RMK A01 T01380016  RH  043%=      5-min Rain = 0
KPD2 081316Z 35010KT 14/02 A2986 RMK A01 T01380015  RH  043%=      5-min Rain = 0
KPD2 081317Z 33009G14KT 14/02 A2986 RMK A01 T01380015  RH  043%=      5-min Rain = 0
KPD2 081318Z 33009KT 14/02 A2986 RMK A01 T01380015  RH  043%=      5-min Rain = 0
KPD2 081319Z 34008KT 14/02 A2986 RMK A01 T01380015  RH  043%=      5-min Rain = 0
KPD2 081320Z 34009KT 14/02 A2986 RMK A01 T01380016  RH  043%=      5-min Rain = 0
KPD2 081321Z 33011KT 14/02 A2986 RMK A01 T01370015  RH  044%=      5-min Rain = 0
KPD2 081322Z 33013KT 14/02 A2986 RMK A01 T01370015  RH  043%=      5-min Rain = 0
KPD2 081323Z 34011KT 14/02 A2986 RMK A01 T01390015  RH  043%=      5-min Rain = 0
KPD2 081324Z 33010KT 14/02 A2986 RMK A01 T01400015  RH  043%=      5-min Rain = 0
KPD2 081325Z 33008KT 14/02 A2986 RMK A01 T01410015  RH  042%=      5-min Rain = 0
KPD2 081326Z 34009KT 14/02 A2986 RMK A01 T01410015  RH  042%=      5-min Rain = 0
KPD2 081327Z 34009KT 14/02 A2986 RMK A01 T01410015  RH  042%=      5-min Rain = 0
KPD2 081328Z 34008KT 14/02 A2986 RMK A01 T01410015  RH  042%=      5-min Rain = 0
KPD2 081329Z 34009KT 14/02 A2985 RMK A01 T01400015  RH  043%=      5-min Rain = 0
KPD2 081330Z 34010KT 14/02 A2986 RMK A01 T01390016  RH  043%=      5-min Rain = 0
KPD2 081331Z 34009KT 14/02 A2985 RMK A01 T01390016  RH  043%=      5-min Rain = 0
KPD2 081332Z 34009KT 14/02 A2985 RMK A01 T01390016  RH  043%=      5-min Rain = 0
KPD2 081333Z 34009KT 14/02 A2985 RMK A01 T01390015  RH  043%=      5-min Rain = 0
KPD2 081334Z 34008KT 14/02 A2985 RMK A01 T01390016  RH  043%=      5-min Rain = 0
KPD2 081335Z 34008KT 14/02 A2986 RMK A01 T01390016  RH  043%=      5-min Rain = 0
KPD2 081336Z 33009KT 14/02 A2986 RMK A01 T01390016  RH  043%=      5-min Rain = 0
KPD2 081337Z 32008KT 14/02 A2986 RMK A01 T01390016  RH  043%=      5-min Rain = 0
KPD2 081338Z 33009KT 14/02 A2986 RMK A01 T01390016  RH  043%=      5-min Rain = 0
KPD2 081339Z 32011KT 14/02 A2985 RMK A01 T01390016  RH  043%=      5-min Rain = 0
KPD2 081340Z 33006KT 14/02 A2985 RMK A01 T01400016  RH  043%=      5-min Rain = 0
KPD2 081341Z 33011KT 14/02 A2985 RMK A01 T01410016  RH  043%=      5-min Rain = 0
KPD2 081342Z 34009KT 14/02 A2985 RMK A01 T01410016  RH  043%=      5-min Rain = 0
KPD2 081343Z 33010KT 14/02 A2985 RMK A01 T01410017  RH  043%=      5-min Rain = 0
KPD2 081344Z 35011G16KT 14/02 A2985 RMK A01 T01400016  RH  043%=      5-min Rain = 0
KPD2 081345Z 34009KT 14/02 A2985 RMK A01 T01400016  RH  043%=      5-min Rain = 0
KPD2 081346Z 34011KT 14/02 A2985 RMK A01 T01400016  RH  043%=      5-min Rain = 0
KPD2 081347Z 33010KT 14/02 A2985 RMK A01 T01390016  RH  043%=      5-min Rain = 0
KPD2 081348Z 31008KT 14/02 A2985 RMK A01 T01400016  RH  043%=      5-min Rain = 0
KPD2 081349Z 32008KT 14/02 A2985 RMK A01 T01400017  RH  043%=      5-min Rain = 0
KPD2 081350Z 32008KT 14/02 A2985 RMK A01 T01390017  RH  043%=      5-min Rain = 0
KPD2 081351Z 33009KT 14/02 A2985 RMK A01 T01390017  RH  043%=      5-min Rain = 0
KPD2 081352Z 35009KT 14/02 A2985 RMK A01 T01390017  RH  043%=      5-min Rain = 0
KPD2 081353Z 35010KT 14/02 A2985 RMK A01 T01390017  RH  043%=      5-min Rain = 0
KPD2 081354Z 33008KT 14/02 A2985 RMK A01 T01390017  RH  043%=      5-min Rain = 0
KPD2 081355Z 32008KT 14/02 A2985 RMK A01 T01380016  RH  044%=      5-min Rain = 0
KPD2 081356Z 33007KT 14/02 A2985 RMK A01 T01380017  RH  044%=      5-min Rain = 0
KPD2 081357Z 34007KT 14/02 A2985 RMK A01 T01370017  RH  044%=      5-min Rain = 0
KPD2 081358Z 33011KT 14/02 A2985 RMK A01 T01370017  RH  044%=      5-min Rain = 0
KPD2 081359Z 33008KT 14/02 A2985 RMK A01 T01370017  RH  044%=      5-min Rain = 0
KPD2 081400Z 35010KT 14/02 A2985 RMK A01 T01370017  RH  044%=      5-min Rain = 0
KPD2 081401Z 33008KT 14/02 A2985 RMK A01 T01360017  RH  044%=      5-min Rain = 0
KPD2 081402Z 33007KT 14/02 A2985 RMK A01 T01360017  RH  044%=      5-min Rain = 0
KPD2 081403Z 34008KT 14/02 A2985 RMK A01 T01360017  RH  044%=      5-min Rain = 0
KPD2 081404Z 34010KT 14/02 A2985 RMK A01 T01360017  RH  045%=      5-min Rain = 0
KPD2 081405Z 33008KT 14/02 A2985 RMK A01 T01360018  RH  045%=      5-min Rain = 0
KPD2 081406Z 33008KT 14/02 A2985 RMK A01 T01360018  RH  044%=      5-min Rain = 0
KPD2 081407Z 33008KT 14/02 A2985 RMK A01 T01370018  RH  044%=      5-min Rain = 0
KPD2 081408Z 34009KT 14/02 A2985 RMK A01 T01370018  RH  044%=      5-min Rain = 0
KPD2 081409Z 33007KT 14/02 A2985 RMK A01 T01380018  RH  044%=      5-min Rain = 0
KPD2 081410Z 32007KT 14/02 A2985 RMK A01 T01380018  RH  044%=      5-min Rain = 0
KPD2 081411Z 33009KT 14/02 A2985 RMK A01 T01370018  RH  044%=      5-min Rain = 0
KPD2 081412Z 33008KT 14/02 A2985 RMK A01 T01380019  RH  044%=      5-min Rain = 0
KPD2 081413Z 34008KT 14/02 A2985 RMK A01 T01380019  RH  044%=      5-min Rain = 0
KPD2 081414Z 35010KT 14/02 A2985 RMK A01 T01380019  RH  044%=      5-min Rain = 0
KPD2 081415Z 34010KT 14/02 A2985 RMK A01 T01380019  RH  044%=      5-min Rain = 0
KPD2 081416Z 33009KT 14/02 A2985 RMK A01 T01380019  RH  044%=      5-min Rain = 0
KPD2 081417Z 33011KT 14/02 A2985 RMK A01 T01380019  RH  044%=      5-min Rain = 0
KPD2 081418Z 33009KT 14/02 A2985 RMK A01 T01390019  RH  044%=      5-min Rain = 0
KPD2 081419Z 33011KT 14/02 A2985 RMK A01 T01390019  RH  044%=      5-min Rain = 0
KPD2 081420Z 33011KT 14/02 A2985 RMK A01 T01400020  RH  044%=      5-min Rain = 0
KPD2 081421Z 33009KT 14/02 A2985 RMK A01 T01400020  RH  044%=      5-min Rain = 0
KPD2 081422Z 34009KT 14/02 A2985 RMK A01 T01400020  RH  044%=      5-min Rain = 0
KPD2 081423Z 34007KT 14/02 A2985 RMK A01 T01410020  RH  044%=      5-min Rain = 0
KPD2 081424Z 34009KT 14/02 A2985 RMK A01 T01400021  RH  044%=      5-min Rain = 0
KPD2 081425Z 35009KT 14/02 A2985 RMK A01 T01400021  RH  044%=      5-min Rain = 0
KPD2 081426Z 34011G16KT 14/02 A2984 RMK A01 T01400021  RH  044%=      5-min Rain = 0
KPD2 081427Z 34010KT 14/02 A2984 RMK A01 T01410020  RH  044%=      5-min Rain = 0
KPD2 081428Z 34010KT 14/02 A2984 RMK A01 T01410021  RH  044%=      5-min Rain = 0
KPD2 081429Z 33010KT 14/02 A2984 RMK A01 T01420021  RH  044%=      5-min Rain = 0
KPD2 081430Z 34008KT 14/02 A2984 RMK A01 T01420021  RH  044%=      5-min Rain = 0
KPD2 081431Z 34008KT 14/02 A2984 RMK A01 T01420021  RH  044%=      5-min Rain = 0
KPD2 081432Z 35010KT 14/02 A2984 RMK A01 T01430021  RH  044%=      5-min Rain = 0
KPD2 081433Z 35009KT 14/02 A2984 RMK A01 T01430022  RH  044%=      5-min Rain = 0
KPD2 081434Z 35010KT 14/02 A2984 RMK A01 T01440022  RH  044%=      5-min Rain = 0
KPD2 081435Z 34010KT 14/02 A2984 RMK A01 T01440022  RH  044%=      5-min Rain = 0
KPD2 081436Z 34009KT 15/02 A2984 RMK A01 T01450022  RH  043%=      5-min Rain = 0
KPD2 081437Z 35010KT 15/02 A2984 RMK A01 T01450022  RH  043%=      5-min Rain = 0
KPD2 081438Z 34010KT 15/02 A2984 RMK A01 T01450023  RH  044%=      5-min Rain = 0
KPD2 081439Z 34007KT 15/02 A2984 RMK A01 T01460022  RH  043%=      5-min Rain = 0
KPD2 081440Z 34009KT 15/02 A2984 RMK A01 T01470023  RH  043%=      5-min Rain = 0
KPD2 081441Z 34009KT 15/02 A2984 RMK A01 T01470023  RH  043%=      5-min Rain = 0
KPD2 081442Z 34009KT 15/02 A2984 RMK A01 T01480023  RH  043%=      5-min Rain = 0
KPD2 081443Z 34008KT 15/02 A2984 RMK A01 T01480023  RH  043%=      5-min Rain = 0
KPD2 081444Z 34008KT 15/02 A2984 RMK A01 T01480023  RH  043%=      5-min Rain = 0
KPD2 081445Z 33007KT 15/02 A2984 RMK A01 T01480023  RH  043%=      5-min Rain = 0
KPD2 081446Z 34008KT 15/02 A2984 RMK A01 T01480023  RH  043%=      5-min Rain = 0
KPD2 081447Z 34008KT 15/02 A2984 RMK A01 T01480024  RH  043%=      5-min Rain = 0
KPD2 081448Z 33006KT 15/03 A2984 RMK A01 T01480025  RH  044%=      5-min Rain = 0
KPD2 081449Z 32007KT 15/03 A2984 RMK A01 T01480025  RH  044%=      5-min Rain = 0
KPD2 081450Z 30008KT 15/03 A2984 RMK A01 T01490025  RH  043%=      5-min Rain = 0
KPD2 081451Z 32007KT 15/03 A2984 RMK A01 T01500025  RH  043%=      5-min Rain = 0
KPD2 081452Z 31008KT 15/03 A2984 RMK A01 T01510027  RH  043%=      5-min Rain = 0
KPD2 081453Z 33008KT 15/03 A2984 RMK A01 T01530027  RH  043%=      5-min Rain = 0
KPD2 081454Z 32009KT 15/03 A2984 RMK A01 T01540028  RH  043%=      5-min Rain = 0
KPD2 081455Z 35009KT 16/03 A2984 RMK A01 T01550026  RH  042%=      5-min Rain = 0
KPD2 081456Z 33009KT 16/03 A2984 RMK A01 T01560028  RH  042%=      5-min Rain = 0
KPD2 081457Z 34008KT 16/03 A2984 RMK A01 T01560027  RH  042%=      5-min Rain = 0
KPD2 081458Z 33009KT 16/03 A2984 RMK A01 T01560027  RH  042%=      5-min Rain = 0
KPD2 081459Z 31009KT 16/03 A2984 RMK A01 T01570028  RH  042%=      5-min Rain = 0
KPD2 081500Z 33009KT 16/03 A2984 RMK A01 T01580028  RH  042%=      5-min Rain = 0
KPD2 081501Z 32010KT 16/03 A2984 RMK A01 T01570028  RH  042%=      5-min Rain = 0
KPD2 081502Z 32010KT 16/03 A2984 RMK A01 T01580028  RH  042%=      5-min Rain = 0
KPD2 081503Z 33009KT 16/03 A2984 RMK A01 T01580029  RH  042%=      5-min Rain = 0
KPD2 081504Z 33009KT 16/03 A2984 RMK A01 T01580029  RH  042%=      5-min Rain = 0
KPD2 081505Z 32009KT 16/03 A2984 RMK A01 T01580029  RH  042%=      5-min Rain = 0
KPD2 081506Z 33007KT 16/03 A2984 RMK A01 T01580029  RH  042%=      5-min Rain = 0
KPD2 081507Z 33007KT 16/03 A2984 RMK A01 T01580029  RH  042%=      5-min Rain = 0
KPD2 081508Z 34006KT 16/03 A2984 RMK A01 T01580030  RH  042%=      5-min Rain = 0
KPD2 081509Z 33008KT 16/03 A2984 RMK A01 T01590031  RH  042%=      5-min Rain = 0
KPD2 081510Z 31010KT 16/03 A2984 RMK A01 T01600031  RH  042%=      5-min Rain = 0
KPD2 081511Z 31008KT 16/03 A2984 RMK A01 T01620031  RH  042%=      5-min Rain = 0
KPD2 081512Z 31009KT 16/03 A2984 RMK A01 T01630031  RH  041%=      5-min Rain = 0
KPD2 081513Z 31012KT 16/03 A2984 RMK A01 T01640030  RH  041%=      5-min Rain = 0
KPD2 081514Z 33011KT 17/03 A2984 RMK A01 T01650030  RH  040%=      5-min Rain = 0
KPD2 081515Z 31011KT 17/03 A2984 RMK A01 T01660030  RH  040%=      5-min Rain = 0
KPD2 081516Z 32008KT 17/03 A2984 RMK A01 T01670031  RH  040%=      5-min Rain = 0
KPD2 081517Z 31009KT 17/03 A2984 RMK A01 T01670031  RH  040%=      5-min Rain = 0
KPD2 081518Z 32011KT 17/03 A2984 RMK A01 T01670031  RH  040%=      5-min Rain = 0
KPD2 081519Z 32010KT 17/03 A2984 RMK A01 T01670030  RH  040%=      5-min Rain = 0
KPD2 081520Z 31011KT 17/03 A2984 RMK A01 T01660030  RH  040%=      5-min Rain = 0
KPD2 081521Z 33010KT 17/03 A2984 RMK A01 T01650030  RH  040%=      5-min Rain = 0
KPD2 081522Z 31009KT 17/03 A2984 RMK A01 T01650030  RH  041%=      5-min Rain = 0
KPD2 081523Z 31010KT 16/03 A2983 RMK A01 T01640031  RH  041%=      5-min Rain = 0
KPD2 081524Z 31009KT 16/03 A2984 RMK A01 T01630030  RH  041%=      5-min Rain = 0
KPD2 081525Z 32008KT 16/03 A2984 RMK A01 T01620030  RH  041%=      5-min Rain = 0
KPD2 081526Z 31007KT 16/03 A2984 RMK A01 T01620030  RH  041%=      5-min Rain = 0
KPD2 081527Z 31007KT 16/03 A2984 RMK A01 T01610031  RH  042%=      5-min Rain = 0
KPD2 081528Z 31009KT 16/03 A2984 RMK A01 T01610031  RH  042%=      5-min Rain = 0
KPD2 081529Z 32010KT 16/03 A2983 RMK A01 T01610031  RH  042%=      5-min Rain = 0
KPD2 081530Z 31010KT 16/03 A2983 RMK A01 T01600031  RH  042%=      5-min Rain = 0
KPD2 081531Z 32009KT 16/03 A2983 RMK A01 T01600031  RH  042%=      5-min Rain = 0
KPD2 081532Z 31011KT 16/03 A2983 RMK A01 T01600032  RH  042%=      5-min Rain = 0
KPD2 081533Z 32010KT 16/03 A2983 RMK A01 T01600031  RH  042%=      5-min Rain = 0
KPD2 081534Z 33008KT 16/03 A2983 RMK A01 T01590032  RH  043%=      5-min Rain = 0
KPD2 081535Z 32009KT 16/03 A2983 RMK A01 T01590032  RH  043%=      5-min Rain = 0
KPD2 081536Z 30006KT 16/03 A2983 RMK A01 T01580032  RH  043%=      5-min Rain = 0
KPD2 081537Z 31008G14KT 16/03 A2983 RMK A01 T01590033  RH  043%=      5-min Rain = 0
KPD2 081538Z 31009KT 16/03 A2984 RMK A01 T01590033  RH  043%=      5-min Rain = 0
KPD2 081539Z 32008G13KT 16/03 A2983 RMK A01 T01590032  RH  043%=      5-min Rain = 0
KPD2 081540Z 31008G13KT 16/03 A2984 RMK A01 T01590033  RH  043%=      5-min Rain = 0
KPD2 081541Z 32009KT 16/03 A2984 RMK A01 T01590033  RH  043%=      5-min Rain = 0
KPD2 081542Z 32007KT 16/03 A2984 RMK A01 T01590033  RH  043%=      5-min Rain = 0
KPD2 081543Z 32008KT 16/03 A2984 RMK A01 T01590034  RH  043%=      5-min Rain = 0
KPD2 081544Z 32009KT 16/04 A2984 RMK A01 T01600035  RH  043%=      5-min Rain = 0
KPD2 081545Z 32009KT 16/03 A2984 RMK A01 T01590034  RH  043%=      5-min Rain = 0
KPD2 081546Z 32009KT 16/03 A2984 RMK A01 T01600034  RH  043%=      5-min Rain = 0
KPD2 081547Z 31010G15KT 16/03 A2984 RMK A01 T01600034  RH  043%=      5-min Rain = 0
KPD2 081548Z 33010KT 16/03 A2984 RMK A01 T01600034  RH  043%=      5-min Rain = 0
KPD2 081549Z 33011KT 16/03 A2984 RMK A01 T01600034  RH  043%=      5-min Rain = 0
KPD2 081550Z 32012KT 16/03 A2984 RMK A01 T01600034  RH  043%=      5-min Rain = 0
KPD2 081551Z 32011KT 16/03 A2984 RMK A01 T01590034  RH  043%=      5-min Rain = 0
KPD2 081552Z 31014KT 16/03 A2984 RMK A01 T01590033  RH  043%=      5-min Rain = 0
KPD2 081553Z 31010KT 16/03 A2984 RMK A01 T01590034  RH  043%=      5-min Rain = 0
KPD2 081554Z 32011G16KT 16/03 A2984 RMK A01 T01580034  RH  043%=      5-min Rain = 0
KPD2 081555Z 32011G18KT 16/03 A2984 RMK A01 T01580034  RH  043%=      5-min Rain = 0
KPD2 081556Z 32013G18KT 16/03 A2984 RMK A01 T01580034  RH  043%=      5-min Rain = 0
KPD2 081557Z 32013KT 16/04 A2984 RMK A01 T01600035  RH  043%=      5-min Rain = 0
KPD2 081558Z 30012KT 16/04 A2984 RMK A01 T01620036  RH  043%=      5-min Rain = 0
KPD2 081559Z 32012KT 16/04 A2984 RMK A01 T01630036  RH  043%=      5-min Rain = 0
KPD2 081600Z 32012KT 16/04 A2984 RMK A01 T01640036  RH  043%=      5-min Rain = 0
KPD2 081601Z 32012G18KT 16/04 A2984 RMK A01 T01630036  RH  043%=      5-min Rain = 0
KPD2 081602Z 31014KT 16/04 A2984 RMK A01 T01640036  RH  042%=      5-min Rain = 0
KPD2 081603Z 31010KT 16/04 A2984 RMK A01 T01640036  RH  042%=      5-min Rain = 0
KPD2 081604Z 31009G15KT 17/04 A2984 RMK A01 T01650037  RH  042%=      5-min Rain = 0
KPD2 081605Z 31009KT 17/04 A2984 RMK A01 T01670037  RH  042%=      5-min Rain = 0
KPD2 081606Z 30011KT 17/04 A2984 RMK A01 T01680036  RH  042%=      5-min Rain = 0
KPD2 081607Z 31012KT 17/04 A2984 RMK A01 T01680036  RH  041%=      5-min Rain = 0
KPD2 081608Z 30007KT 17/04 A2984 RMK A01 T01680036  RH  041%=      5-min Rain = 0
KPD2 081609Z 31010G16KT 17/04 A2984 RMK A01 T01680037  RH  042%=      5-min Rain = 0
KPD2 081610Z 30010KT 17/04 A2984 RMK A01 T01680037  RH  042%=      5-min Rain = 0
KPD2 081611Z 31010G17KT 17/04 A2984 RMK A01 T01660036  RH  042%=      5-min Rain = 0
KPD2 081612Z 30014G21KT 17/04 A2984 RMK A01 T01650036  RH  042%=      5-min Rain = 0
KPD2 081613Z 31011KT 16/04 A2984 RMK A01 T01640036  RH  042%=      5-min Rain = 0
KPD2 081614Z 31010KT 16/04 A2984 RMK A01 T01630036  RH  043%=      5-min Rain = 0
KPD2 081615Z 31011KT 16/04 A2984 RMK A01 T01630036  RH  043%=      5-min Rain = 0
KPD2 081616Z 30008KT 16/04 A2984 RMK A01 T01630037  RH  043%=      5-min Rain = 0
KPD2 081617Z 30010KT 16/04 A2984 RMK A01 T01630037  RH  043%=      5-min Rain = 0
KPD2 081618Z 30011KT 16/04 A2984 RMK A01 T01640038  RH  043%=      5-min Rain = 0
KPD2 081619Z 30014KT 17/04 A2984 RMK A01 T01650037  RH  042%=      5-min Rain = 0
KPD2 081620Z 31011G16KT 17/04 A2983 RMK A01 T01650037  RH  042%=      5-min Rain = 0
KPD2 081621Z 31012KT 17/04 A2983 RMK A01 T01650037  RH  042%=      5-min Rain = 0
KPD2 081622Z 31010G15KT 17/04 A2983 RMK A01 T01650037  RH  043%=      5-min Rain = 0
KPD2 081623Z 30008G14KT 17/04 A2983 RMK A01 T01650038  RH  043%=      5-min Rain = 0
KPD2 081624Z 30011G19KT 17/04 A2983 RMK A01 T01670039  RH  043%=      5-min Rain = 0
KPD2 081625Z 31009KT 17/04 A2983 RMK A01 T01670039  RH  042%=      5-min Rain = 0
KPD2 081626Z 30012KT 17/04 A2984 RMK A01 T01680039  RH  042%=      5-min Rain = 0
KPD2 081627Z 30008KT 17/04 A2984 RMK A01 T01680038  RH  042%=      5-min Rain = 0
KPD2 081628Z 30014KT 17/04 A2984 RMK A01 T01690039  RH  042%=      5-min Rain = 0
KPD2 081629Z 29012KT 17/04 A2984 RMK A01 T01680038  RH  042%=      5-min Rain = 0
KPD2 081630Z 30010KT 17/04 A2984 RMK A01 T01680038  RH  042%=      5-min Rain = 0
KPD2 081631Z 31013KT 17/04 A2984 RMK A01 T01680039  RH  042%=      5-min Rain = 0
KPD2 081632Z 32010KT 17/04 A2984 RMK A01 T01690040  RH  042%=      5-min Rain = 0
KPD2 081633Z 31008KT 17/04 A2984 RMK A01 T01710042  RH  042%=      5-min Rain = 0
KPD2 081634Z 30011G16KT 17/04 A2984 RMK A01 T01720041  RH  042%=      5-min Rain = 0
KPD2 081635Z 30014KT 17/04 A2983 RMK A01 T01720040  RH  041%=      5-min Rain = 0
KPD2 081636Z 30011KT 17/04 A2983 RMK A01 T01720040  RH  042%=      5-min Rain = 0
KPD2 081637Z 29011G17KT 17/04 A2983 RMK A01 T01720040  RH  042%=      5-min Rain = 0
KPD2 081638Z 30007KT 17/04 A2983 RMK A01 T01720041  RH  042%=      5-min Rain = 0
KPD2 081639Z 30009KT 17/04 A2983 RMK A01 T01740042  RH  042%=      5-min Rain = 0
KPD2 081640Z 28010G16KT 17/04 A2983 RMK A01 T01740041  RH  041%=      5-min Rain = 0
KPD2 081641Z 30009KT 17/04 A2983 RMK A01 T01740041  RH  041%=      5-min Rain = 0
KPD2 081642Z 30011KT 17/04 A2983 RMK A01 T01740041  RH  041%=      5-min Rain = 0
KPD2 081643Z 29009KT 17/04 A2983 RMK A01 T01740041  RH  041%=      5-min Rain = 0
KPD2 081644Z 30013KT 17/04 A2983 RMK A01 T01740041  RH  041%=      5-min Rain = 0
KPD2 081645Z 29010KT 17/04 A2983 RMK A01 T01740041  RH  041%=      5-min Rain = 0
KPD2 081646Z 28010KT 17/04 A2983 RMK A01 T01730041  RH  042%=      5-min Rain = 0
KPD2 081647Z 29013KT 17/04 A2983 RMK A01 T01730041  RH  041%=      5-min Rain = 0
KPD2 081648Z 30012KT 17/04 A2983 RMK A01 T01720041  RH  042%=      5-min Rain = 0
KPD2 081649Z 31008KT 17/04 A2983 RMK A01 T01720042  RH  042%=      5-min Rain = 0
KPD2 081650Z 32011KT 17/04 A2982 RMK A01 T01740043  RH  042%=      5-min Rain = 0
KPD2 081651Z 29012KT 18/04 A2982 RMK A01 T01760044  RH  041%=      5-min Rain = 0
KPD2 081652Z 29011KT 18/04 A2982 RMK A01 T01760042  RH  041%=      5-min Rain = 0
KPD2 081653Z 29011KT 18/04 A2983 RMK A01 T01760042  RH  041%=      5-min Rain = 0
KPD2 081654Z 30013G18KT 18/04 A2983 RMK A01 T01760042  RH  041%=      5-min Rain = 0
KPD2 081655Z 30010G15KT 18/04 A2983 RMK A01 T01750042  RH  041%=      5-min Rain = 0
KPD2 081656Z 29009KT 18/04 A2983 RMK A01 T01760043  RH  041%=      5-min Rain = 0
KPD2 081657Z 30011KT 18/04 A2982 RMK A01 T01770043  RH  041%=      5-min Rain = 0
KPD2 081658Z 29010KT 18/04 A2982 RMK A01 T01760043  RH  041%=      5-min Rain = 0
KPD2 081659Z 29011KT 18/04 A2982 RMK A01 T01760043  RH  041%=      5-min Rain = 0
KPD2 081700Z 30012KT 18/04 A2982 RMK A01 T01760044  RH  041%=      5-min Rain = 0
KPD2 081701Z 30013KT 18/04 A2982 RMK A01 T01760043  RH  041%=      5-min Rain = 0
KPD2 081702Z 30010KT 18/04 A2982 RMK A01 T01760043  RH  041%=      5-min Rain = 0
KPD2 081703Z 31010G15KT 18/04 A2982 RMK A01 T01770044  RH  041%=      5-min Rain = 0
KPD2 081704Z 31013KT 18/04 A2982 RMK A01 T01780044  RH  041%=      5-min Rain = 0
KPD2 081705Z 30010KT 18/04 A2982 RMK A01 T01780043  RH  041%=      5-min Rain = 0
KPD2 081706Z 32009KT 18/04 A2982 RMK A01 T01780044  RH  041%=      5-min Rain = 0
KPD2 081707Z 28008KT 18/04 A2982 RMK A01 T01790044  RH  041%=      5-min Rain = 0
KPD2 081708Z 29009KT 18/05 A2982 RMK A01 T01800045  RH  041%=      5-min Rain = 0
KPD2 081709Z 29011KT 18/05 A2982 RMK A01 T01820046  RH  041%=      5-min Rain = 0
KPD2 081710Z 31010G15KT 18/05 A2982 RMK A01 T01820045  RH  040%=      5-min Rain = 0
KPD2 081711Z 29013G19KT 18/05 A2982 RMK A01 T01840046  RH  040%=      5-min Rain = 0
KPD2 081712Z 32012G17KT 18/05 A2982 RMK A01 T01840045  RH  040%=      5-min Rain = 0
KPD2 081713Z 30014KT 18/05 A2982 RMK A01 T01840046  RH  040%=      5-min Rain = 0
KPD2 081714Z 30010G16KT 19/05 A2982 RMK A01 T01850045  RH  040%=      5-min Rain = 0
KPD2 081715Z 30008G15KT 19/05 A2982 RMK A01 T01860047  RH  040%=      5-min Rain = 0
KPD2 081716Z 29012G20KT 19/05 A2982 RMK A01 T01870047  RH  039%=      5-min Rain = 0
KPD2 081717Z 29009G14KT 19/05 A2981 RMK A01 T01870045  RH  039%=      5-min Rain = 0
KPD2 081718Z 30008KT 19/05 A2981 RMK A01 T01860045  RH  039%=      5-min Rain = 0
KPD2 081719Z 29010KT 19/05 A2981 RMK A01 T01860046  RH  040%=      5-min Rain = 0
KPD2 081720Z 29009G14KT 19/05 A2981 RMK A01 T01870046  RH  039%=      5-min Rain = 0
KPD2 081721Z 26008G13KT 19/05 A2981 RMK A01 T01880046  RH  039%=      5-min Rain = 0
KPD2 081722Z 27008KT 19/05 A2981 RMK A01 T01880047  RH  039%=      5-min Rain = 0
KPD2 081723Z 27011KT 19/05 A2981 RMK A01 T01890047  RH  039%=      5-min Rain = 0
KPD2 081724Z 27014KT 19/05 A2981 RMK A01 T01890046  RH  039%=      5-min Rain = 0
KPD2 081725Z 26014G20KT 19/05 A2981 RMK A01 T01870045  RH  039%=      5-min Rain = 0
KPD2 081726Z 28011KT 19/05 A2981 RMK A01 T01860045  RH  039%=      5-min Rain = 0
KPD2 081727Z 29013KT 19/05 A2981 RMK A01 T01880047  RH  039%=      5-min Rain = 0
KPD2 081728Z 30009G14KT 19/05 A2981 RMK A01 T01880046  RH  039%=      5-min Rain = 0
KPD2 081729Z 27013G21KT 19/05 A2981 RMK A01 T01890047  RH  039%=      5-min Rain = 0
KPD2 081730Z 26013G22KT 19/05 A2981 RMK A01 T01890046  RH  039%=      5-min Rain = 0
KPD2 081731Z 29011KT 19/05 A2981 RMK A01 T01880046  RH  039%=      5-min Rain = 0
KPD2 081732Z 28011KT 19/05 A2981 RMK A01 T01880047  RH  039%=      5-min Rain = 0
KPD2 081733Z 28011KT 19/05 A2981 RMK A01 T01890047  RH  039%=      5-min Rain = 0
KPD2 081734Z 26012G17KT 19/05 A2981 RMK A01 T01890046  RH  039%=      5-min Rain = 0
KPD2 081735Z 28016KT 19/05 A2981 RMK A01 T01890046  RH  039%=      5-min Rain = 0
KPD2 081736Z 30011G16KT 19/05 A2981 RMK A01 T01880046  RH  039%=      5-min Rain = 0
KPD2 081737Z 30011KT 19/05 A2981 RMK A01 T01890047  RH  039%=      5-min Rain = 0
KPD2 081738Z 30013G18KT 19/05 A2981 RMK A01 T01900048  RH  039%=      5-min Rain = 0
KPD2 081739Z 30012G19KT 19/05 A2981 RMK A01 T01910047  RH  039%=      5-min Rain = 0
KPD2 081740Z 31014G21KT 19/05 A2981 RMK A01 T01910047  RH  039%=      5-min Rain = 0
KPD2 081741Z 31016G23KT 19/05 A2981 RMK A01 T01910046  RH  038%=      5-min Rain = 0
KPD2 081742Z 30012G17KT 19/05 A298 RMK A01 T01910046  RH  038%=      5-min Rain = 0
KPD2 081743Z 29016G23KT 19/05 A2981 RMK A01 T01910046  RH  038%=      5-min Rain = 0
KPD2 081744Z 30015G21KT 19/05 A298 RMK A01 T01900045  RH  038%=      5-min Rain = 0
KPD2 081745Z 29015KT 19/05 A298 RMK A01 T01900046  RH  039%=      5-min Rain = 0
KPD2 081746Z 28010G20KT 19/05 A298 RMK A01 T01890045  RH  039%=      5-min Rain = 0
KPD2 081747Z 29010G15KT 19/05 A2979 RMK A01 T01900045  RH  039%=      5-min Rain = 0
KPD2 081748Z 27009G15KT 19/05 A2979 RMK A01 T01900046  RH  039%=      5-min Rain = 0
KPD2 081749Z 28010G17KT 19/05 A2979 RMK A01 T01920047  RH  038%=      5-min Rain = 0
KPD2 081750Z 28012G17KT 19/05 A2979 RMK A01 T01920046  RH  038%=      5-min Rain = 0
KPD2 081751Z 30010G15KT 19/05 A2979 RMK A01 T01920046  RH  038%=      5-min Rain = 0
KPD2 081752Z 28007KT 19/05 A2979 RMK A01 T01920047  RH  038%=      5-min Rain = 0
KPD2 081753Z 27009KT 19/05 A2979 RMK A01 T01940049  RH  038%=      5-min Rain = 0
KPD2 081754Z 29011KT 20/05 A2979 RMK A01 T01960049  RH  038%=      5-min Rain = 0
KPD2 081755Z 28011G17KT 20/05 A2979 RMK A01 T01960047  RH  037%=      5-min Rain = 0
KPD2 081756Z 29012KT 20/05 A2979 RMK A01 T01960048  RH  038%=      5-min Rain = 0
KPD2 081757Z 30007G12KT 20/05 A2979 RMK A01 T01960048  RH  038%=      5-min Rain = 0
KPD2 081758Z 29013G19KT 20/05 A2979 RMK A01 T01970049  RH  038%=      5-min Rain = 0
KPD2 081759Z 29009KT 20/05 A2979 RMK A01 T01980049  RH  037%=      5-min Rain = 0
KPD2 081800Z 29009KT 20/05 A2978 RMK A01 T01980049  RH  037%=      5-min Rain = 0
KPD2 081801Z 31012KT 20/05 A2978 RMK A01 T01990049  RH  037%=      5-min Rain = 0
KPD2 081802Z 31012KT 20/05 A2978 RMK A01 T01990049  RH  037%=      5-min Rain = 0
KPD2 081803Z 31016G21KT 20/05 A2978 RMK A01 T01990049  RH  037%=      5-min Rain = 0
KPD2 081804Z 29013G21KT 20/05 A2978 RMK A01 T01980048  RH  037%=      5-min Rain = 0
KPD2 081805Z 28009KT 20/05 A2978 RMK A01 T01970048  RH  038%=      5-min Rain = 0
KPD2 081806Z 28009KT 20/05 A2978 RMK A01 T01970048  RH  038%=      5-min Rain = 0
KPD2 081807Z 30006KT 20/05 A2978 RMK A01 T01980050  RH  038%=      5-min Rain = 0
KPD2 081808Z 30010KT 20/05 A2978 RMK A01 T02000051  RH  038%=      5-min Rain = 0
KPD2 081809Z 30010KT 20/05 A2978 RMK A01 T02010050  RH  037%=      5-min Rain = 0
KPD2 081810Z 30008KT 20/05 A2977 RMK A01 T02020051  RH  037%=      5-min Rain = 0
KPD2 081811Z 30013G19KT 20/05 A2978 RMK A01 T02040050  RH  036%=      5-min Rain = 0
KPD2 081812Z 28011KT 20/05 A2977 RMK A01 T02040050  RH  036%=      5-min Rain = 0
KPD2 081813Z 30008KT 20/05 A2977 RMK A01 T02040051  RH  037%=      5-min Rain = 0
KPD2 081814Z 29012G18KT 21/05 A2977 RMK A01 T02050050  RH  036%=      5-min Rain = 0
KPD2 081815Z 28011KT 20/05 A2977 RMK A01 T02040048  RH  036%=      5-min Rain = 0
KPD2 081816Z 29009G14KT 20/05 A2977 RMK A01 T02030048  RH  036%=      5-min Rain = 0
KPD2 081817Z 30009G15KT 20/05 A2977 RMK A01 T02030049  RH  036%=      5-min Rain = 0
KPD2 081818Z 31010G15KT 21/05 A2976 RMK A01 T02050050  RH  036%=      5-min Rain = 0
KPD2 081819Z 32015KT 21/05 A2976 RMK A01 T02060049  RH  036%=      5-min Rain = 0
KPD2 081820Z 31012G17KT 21/05 A2976 RMK A01 T02070047  RH  035%=      5-min Rain = 0
KPD2 081821Z 31009KT 21/05 A2977 RMK A01 T02080048  RH  035%=      5-min Rain = 0
KPD2 081822Z 31007KT 21/05 A2976 RMK A01 T02080049  RH  035%=      5-min Rain = 0
KPD2 081823Z 30009KT 21/05 A2976 RMK A01 T02100050  RH  035%=      5-min Rain = 0
KPD2 081824Z 31010KT 21/05 A2976 RMK A01 T02110049  RH  035%=      5-min Rain = 0
KPD2 081825Z 31009KT 21/05 A2976 RMK A01 T02110049  RH  035%=      5-min Rain = 0
KPD2 081826Z 28008G13KT 21/05 A2976 RMK A01 T02110050  RH  035%=      5-min Rain = 0
KPD2 081827Z 28011G22KT 21/05 A2976 RMK A01 T02120050  RH  035%=      5-min Rain = 0
KPD2 081828Z 27013G23KT 21/05 A2976 RMK A01 T02090045  RH  034%=      5-min Rain = 0
KPD2 081829Z 28010G16KT 21/05 A2976 RMK A01 T02060045  RH  035%=      5-min Rain = 0
KPD2 081830Z 31013G20KT 21/05 A2976 RMK A01 T02050046  RH  035%=      5-min Rain = 0
KPD2 081831Z 30015KT 21/05 A2976 RMK A01 T02050046  RH  035%=      5-min Rain = 0
KPD2 081832Z 29014G19KT 21/05 A2976 RMK A01 T02050046  RH  035%=      5-min Rain = 0
KPD2 081833Z 30010G17KT 21/05 A2976 RMK A01 T02050046  RH  035%=      5-min Rain = 0
KPD2 081834Z 29015G20KT 21/05 A2976 RMK A01 T02070047  RH  035%=      5-min Rain = 0
KPD2 081835Z 30014G21KT 21/05 A2975 RMK A01 T02080047  RH  035%=      5-min Rain = 0
KPD2 081836Z 31016G22KT 21/05 A2975 RMK A01 T02080047  RH  035%=      5-min Rain = 0
KPD2 081837Z 31014KT 21/05 A2975 RMK A01 T02080047  RH  035%=      5-min Rain = 0
KPD2 081838Z 32016G21KT 21/05 A2975 RMK A01 T02090047  RH  035%=      5-min Rain = 0
KPD2 081839Z 31014G21KT 21/05 A2975 RMK A01 T02100047  RH  034%=      5-min Rain = 0
KPD2 081840Z 30011G19KT 21/05 A2975 RMK A01 T02100046  RH  034%=      5-min Rain = 0
KPD2 081841Z 30008KT 21/05 A2975 RMK A01 T02100047  RH  034%=      5-min Rain = 0
KPD2 081842Z 27007KT 21/05 A2975 RMK A01 T02120049  RH  034%=      5-min Rain = 0
KPD2 081843Z 27006KT 21/05 A2975 RMK A01 T02130048  RH  034%=      5-min Rain = 0
KPD2 081844Z 30008G13KT 21/05 A2975 RMK A01 T02140049  RH  034%=      5-min Rain = 0
KPD2 081845Z 26013G21KT 22/05 A2975 RMK A01 T02160050  RH  034%=      5-min Rain = 0
KPD2 081846Z 28012KT 22/05 A2975 RMK A01 T02160049  RH  033%=      5-min Rain = 0
KPD2 081847Z 27013KT 21/05 A2975 RMK A01 T02140049  RH  034%=      5-min Rain = 0
KPD2 081848Z 27014G23KT 21/05 A2975 RMK A01 T02130047  RH  034%=      5-min Rain = 0
KPD2 081849Z 28016G24KT 21/05 A2974 RMK A01 T02100047  RH  034%=      5-min Rain = 0
KPD2 081850Z 29011G17KT 21/05 A2974 RMK A01 T02080047  RH  035%=      5-min Rain = 0
KPD2 081851Z 28010KT 21/05 A2974 RMK A01 T02080047  RH  035%=      5-min Rain = 0
KPD2 081852Z 29009KT 21/05 A2974 RMK A01 T02080047  RH  035%=      5-min Rain = 0
KPD2 081853Z 28008KT 21/05 A2974 RMK A01 T02090049  RH  035%=      5-min Rain = 0
KPD2 081854Z 29013KT 21/05 A2975 RMK A01 T02110049  RH  035%=      5-min Rain = 0
KPD2 081855Z 27014G27KT 21/05 A2975 RMK A01 T02130048  RH  034%=      5-min Rain = 0
KPD2 081856Z 28016G23KT 21/05 A2975 RMK A01 T02130045  RH  033%=      5-min Rain = 0
KPD2 081857Z 27015G22KT 21/05 A2975 RMK A01 T02120045  RH  034%=      5-min Rain = 0
KPD2 081858Z 26012KT 21/05 A2975 RMK A01 T02110045  RH  034%=      5-min Rain = 0
KPD2 081859Z 26017G24KT 21/05 A2974 RMK A01 T02120046  RH  034%=      5-min Rain = 0
KPD2 081900Z 29014G22KT 21/05 A2975 RMK A01 T02120045  RH  033%=      5-min Rain = 0
KPD2 081901Z 28010G15KT 21/05 A2974 RMK A01 T02120046  RH  034%=      5-min Rain = 0
KPD2 081902Z 29012G17KT 21/05 A2974 RMK A01 T02140047  RH  034%=      5-min Rain = 0
KPD2 081903Z 28011KT 22/05 A2974 RMK A01 T02150046  RH  033%=      5-min Rain = 0
KPD2 081904Z 28013G19KT 22/05 A2974 RMK A01 T02160047  RH  033%=      5-min Rain = 0
KPD2 081905Z 27010KT 22/05 A2974 RMK A01 T02180046  RH  033%=      5-min Rain = 0
KPD2 081906Z 28010KT 22/05 A2974 RMK A01 T02180047  RH  033%=      5-min Rain = 0
KPD2 081907Z 29007KT 22/05 A2974 RMK A01 T02190047  RH  033%=      5-min Rain = 0
KPD2 081908Z 29012G18KT 22/05 A2974 RMK A01 T02190048  RH  033%=      5-min Rain = 0
KPD2 081909Z 29010G15KT 22/05 A2974 RMK A01 T02190047  RH  033%=      5-min Rain = 0
KPD2 081910Z 28008KT 22/05 A2973 RMK A01 T02180047  RH  033%=      5-min Rain = 0
KPD2 081911Z 29007G12KT 22/05 A2974 RMK A01 T02170048  RH  033%=      5-min Rain = 0
KPD2 081912Z 30022KT 22/05 A2974 RMK A01 T02170046  RH  033%=      5-min Rain = 0
KPD2 081913Z 30016G23KT 22/04 A2974 RMK A01 T02160043  RH  032%=      5-min Rain = 0
KPD2 081914Z 29021G28KT 22/04 A2974 RMK A01 T02150042  RH  032%=      5-min Rain = 0
KPD2 081915Z 29015KT 21/04 A2974 RMK A01 T02140041  RH  032%=      5-min Rain = 0
KPD2 081916Z 29014G24KT 21/04 A2973 RMK A01 T02140042  RH  032%=      5-min Rain = 0
KPD2 081917Z 29012G19KT 22/04 A2973 RMK A01 T02160042  RH  032%=      5-min Rain = 0
KPD2 081918Z 30011G16KT 22/04 A2973 RMK A01 T02170043  RH  032%=      5-min Rain = 0
KPD2 081919Z 29011G19KT 22/04 A2973 RMK A01 T02180044  RH  032%=      5-min Rain = 0
KPD2 081920Z 30016G24KT 22/04 A2973 RMK A01 T02200044  RH  032%=      5-min Rain = 0
KPD2 081921Z 29014G22KT 22/04 A2973 RMK A01 T02200043  RH  031%=      5-min Rain = 0
KPD2 081922Z 30016G22KT 22/04 A2973 RMK A01 T02200043  RH  031%=      5-min Rain = 0
KPD2 081923Z 29014G22KT 22/04 A2973 RMK A01 T02190043  RH  032%=      5-min Rain = 0
KPD2 081924Z 30015G21KT 22/04 A2973 RMK A01 T02200042  RH  031%=      5-min Rain = 0
KPD2 081925Z 29016KT 22/04 A2973 RMK A01 T02190042  RH  031%=      5-min Rain = 0
KPD2 081926Z 29014KT 22/04 A2973 RMK A01 T02190042  RH  031%=      5-min Rain = 0
KPD2 081927Z 29012G17KT 22/04 A2973 RMK A01 T02200043  RH  031%=      5-min Rain = 0
KPD2 081928Z 30014G25KT 22/04 A2973 RMK A01 T02220044  RH  031%=      5-min Rain = 0
KPD2 081929Z 30015G20KT 22/04 A2973 RMK A01 T02230043  RH  031%=      5-min Rain = 0
KPD2 081930Z 29018G23KT 22/04 A2973 RMK A01 T02240042  RH  031%=      5-min Rain = 0
KPD2 081931Z 30013KT 22/04 A2973 RMK A01 T02230042  RH  031%=      5-min Rain = 0
KPD2 081932Z 29019G26KT 22/04 A2972 RMK A01 T02230042  RH  031%=      5-min Rain = 0
KPD2 081933Z 30018G27KT 22/04 A2972 RMK A01 T02220041  RH  031%=      5-min Rain = 0
KPD2 081934Z 30019G28KT 22/04 A2973 RMK A01 T02210041  RH  031%=      5-min Rain = 0
KPD2 081935Z 30019G25KT 22/04 A2972 RMK A01 T02200040  RH  031%=      5-min Rain = 0
KPD2 081936Z 30018G25KT 22/04 A2972 RMK A01 T02190041  RH  031%=      5-min Rain = 0
KPD2 081937Z 29018G25KT 22/04 A2973 RMK A01 T02200041  RH  031%=      5-min Rain = 0
KPD2 081938Z 28014G20KT 22/04 A2973 RMK A01 T02200041  RH  031%=      5-min Rain = 0
KPD2 081939Z 27015G21KT 22/04 A2973 RMK A01 T02190041  RH  031%=      5-min Rain = 0
KPD2 081940Z 27015G20KT 22/04 A2973 RMK A01 T02190041  RH  031%=      5-min Rain = 0
KPD2 081941Z 27014G20KT 22/04 A2972 RMK A01 T02200042  RH  031%=      5-min Rain = 0
KPD2 081942Z 28010G17KT 22/04 A2972 RMK A01 T02200042  RH  031%=      5-min Rain = 0
KPD2 081943Z 27014G24KT 22/04 A2973 RMK A01 T02200042  RH  031%=      5-min Rain = 0
KPD2 081944Z 27014G19KT 22/04 A2972 RMK A01 T02210042  RH  031%=      5-min Rain = 0
KPD2 081945Z 28012G18KT 22/04 A2972 RMK A01 T02210042  RH  031%=      5-min Rain = 0
KPD2 081946Z 31012G18KT 22/04 A2972 RMK A01 T02220043  RH  031%=      5-min Rain = 0
KPD2 081947Z 29010KT 22/04 A2972 RMK A01 T02230044  RH  031%=      5-min Rain = 0
KPD2 081948Z 30014G20KT 22/04 A2972 RMK A01 T02240043  RH  031%=      5-min Rain = 0
KPD2 081949Z 30014KT 22/04 A2972 RMK A01 T02230042  RH  031%=      5-min Rain = 0
KPD2 081950Z 31010G21KT 22/04 A2972 RMK A01 T02220042  RH  031%=      5-min Rain = 0
KPD2 081951Z 30018G25KT 22/04 A2972 RMK A01 T02220042  RH  031%=      5-min Rain = 0
KPD2 081952Z 30014G19KT 22/04 A2972 RMK A01 T02210041  RH  031%=      5-min Rain = 0
KPD2 081953Z 29016G21KT 22/04 A2972 RMK A01 T02210042  RH  031%=      5-min Rain = 0
KPD2 081954Z 30013G18KT 22/04 A2972 RMK A01 T02210042  RH  031%=      5-min Rain = 0
KPD2 081955Z 28014G21KT 22/04 A2972 RMK A01 T02220042  RH  031%=      5-min Rain = 0
KPD2 081956Z 28009G14KT 22/04 A2972 RMK A01 T02220042  RH  031%=      5-min Rain = 0
KPD2 081957Z 27008G13KT 22/04 A2972 RMK A01 T02230042  RH  031%=      5-min Rain = 0
KPD2 081958Z 29009G14KT 23/04 A2972 RMK A01 T02250044  RH  031%=      5-min Rain = 0
KPD2 081959Z 31009KT 23/05 A2972 RMK A01 T02270045  RH  031%=      5-min Rain = 0
KPD2 082000Z 30012G17KT 23/04 A2972 RMK A01 T02270044  RH  030%=      5-min Rain = 0
KPD2 082001Z 28014KT 23/04 A2972 RMK A01 T02250041  RH  030%=      5-min Rain = 0
KPD2 082002Z 30011KT 22/04 A2972 RMK A01 T02240041  RH  030%=      5-min Rain = 0
KPD2 082003Z 30013G19KT 22/04 A2971 RMK A01 T02230041  RH  030%=      5-min Rain = 0
KPD2 082004Z 27015G22KT 22/04 A2972 RMK A01 T02230040  RH  030%=      5-min Rain = 0
KPD2 082005Z 28016G22KT 22/04 A2972 RMK A01 T02220039  RH  030%=      5-min Rain = 0
KPD2 082006Z 27016G21KT 22/04 A2971 RMK A01 T02210038  RH  030%=      5-min Rain = 0
KPD2 082007Z 29013G20KT 22/04 A2971 RMK A01 T02200039  RH  030%=      5-min Rain = 0
KPD2 082008Z 27014G19KT 22/04 A2971 RMK A01 T02190039  RH  031%=      5-min Rain = 0
KPD2 082009Z 29012KT 22/04 A2971 RMK A01 T02200040  RH  031%=      5-min Rain = 0
KPD2 082010Z 30016G22KT 22/04 A2972 RMK A01 T02210040  RH  031%=      5-min Rain = 0
KPD2 082011Z 29013G18KT 22/04 A2971 RMK A01 T02220039  RH  030%=      5-min Rain = 0
KPD2 082012Z 31016G22KT 22/04 A2971 RMK A01 T02220039  RH  030%=      5-min Rain = 0
KPD2 082013Z 28014G19KT 22/04 A2971 RMK A01 T02230038  RH  030%=      5-min Rain = 0
KPD2 082014Z 28011G16KT 22/04 A2971 RMK A01 T02230039  RH  030%=      5-min Rain = 0
KPD2 082015Z 28015G20KT 22/04 A2971 RMK A01 T02230039  RH  030%=      5-min Rain = 0
KPD2 082016Z 28009G17KT 22/04 A2971 RMK A01 T02230038  RH  030%=      5-min Rain = 0
KPD2 082017Z 27012G18KT 22/04 A2971 RMK A01 T02230038  RH  030%=      5-min Rain = 0
KPD2 082018Z 30011KT 22/04 A2971 RMK A01 T02230038  RH  030%=      5-min Rain = 0
KPD2 082019Z 30011KT 22/04 A2971 RMK A01 T02240038  RH  030%=      5-min Rain = 0
KPD2 082020Z 29009KT 22/04 A2971 RMK A01 T02240039  RH  030%=      5-min Rain = 0
KPD2 082021Z 28011KT 23/04 A2971 RMK A01 T02250039  RH  030%=      5-min Rain = 0
KPD2 082022Z 28012G18KT 23/04 A2971 RMK A01 T02260039  RH  030%=      5-min Rain = 0
KPD2 082023Z 27016G21KT 23/04 A2971 RMK A01 T02260037  RH  029%=      5-min Rain = 0
KPD2 082024Z 27014G23KT 23/04 A2971 RMK A01 T02250036  RH  029%=      5-min Rain = 0
KPD2 082025Z 27014KT 23/04 A2971 RMK A01 T02250036  RH  029%=      5-min Rain = 0
KPD2 082026Z 28013KT 23/04 A2971 RMK A01 T02250037  RH  029%=      5-min Rain = 0
KPD2 082027Z 28009KT 23/04 A2971 RMK A01 T02260038  RH  029%=      5-min Rain = 0
KPD2 082028Z 28015G25KT 23/04 A297 RMK A01 T02260037  RH  029%=      5-min Rain = 0
KPD2 082029Z 29012KT 23/04 A297 RMK A01 T02260037  RH  029%=      5-min Rain = 0
KPD2 082030Z 28013KT 23/04 A297 RMK A01 T02260038  RH  029%=      5-min Rain = 0
KPD2 082031Z 28010KT 23/04 A297 RMK A01 T02260038  RH  029%=      5-min Rain = 0
KPD2 082032Z 30010KT 23/04 A297 RMK A01 T02270039  RH  029%=      5-min Rain = 0
KPD2 082033Z 31013G20KT 23/04 A297 RMK A01 T02290039  RH  029%=      5-min Rain = 0
KPD2 082034Z 30013G18KT 23/04 A297 RMK A01 T02290039  RH  029%=      5-min Rain = 0
KPD2 082035Z 29012KT 23/04 A297 RMK A01 T02300038  RH  029%=      5-min Rain = 0
KPD2 082036Z 28011KT 23/04 A297 RMK A01 T02300039  RH  029%=      5-min Rain = 0
KPD2 082037Z 30010KT 23/04 A297 RMK A01 T02300039  RH  029%=      5-min Rain = 0
KPD2 082038Z 27008KT 23/04 A297 RMK A01 T02300039  RH  029%=      5-min Rain = 0
KPD2 082039Z 28011KT 23/04 A297 RMK A01 T02310038  RH  029%=      5-min Rain = 0
KPD2 082040Z 31014G20KT 23/04 A297 RMK A01 T02310038  RH  028%=      5-min Rain = 0
KPD2 082041Z 28011G19KT 23/04 A297 RMK A01 T02320038  RH  028%=      5-min Rain = 0
KPD2 082042Z 27011G17KT 23/04 A297 RMK A01 T02320038  RH  028%=      5-min Rain = 0
KPD2 082043Z 27013G22KT 23/04 A297 RMK A01 T02320037  RH  028%=      5-min Rain = 0
KPD2 082044Z 28014KT 23/04 A297 RMK A01 T02320036  RH  028%=      5-min Rain = 0
KPD2 082045Z 27016G21KT 23/04 A297 RMK A01 T02310035  RH  028%=      5-min Rain = 0
KPD2 082046Z 27018G26KT 23/04 A297 RMK A01 T02300036  RH  028%=      5-min Rain = 0
KPD2 082047Z 28019G26KT 23/04 A297 RMK A01 T02280035  RH  028%=      5-min Rain = 0
KPD2 082048Z 30016G22KT 23/04 A297 RMK A01 T02280036  RH  029%=      5-min Rain = 0
KPD2 082049Z 28014G23KT 23/04 A297 RMK A01 T02280038  RH  029%=      5-min Rain = 0
KPD2 082050Z 27015G21KT 23/04 A297 RMK A01 T02280038  RH  029%=      5-min Rain = 0
KPD2 082051Z 27019G26KT 23/04 A297 RMK A01 T02280038  RH  029%=      5-min Rain = 0
KPD2 082052Z 28017G25KT 23/04 A297 RMK A01 T02270038  RH  029%=      5-min Rain = 0
KPD2 082053Z 27016G24KT 23/04 A297 RMK A01 T02260038  RH  029%=      5-min Rain = 0
KPD2 082054Z 28017G25KT 23/04 A297 RMK A01 T02260038  RH  029%=      5-min Rain = 0
KPD2 082055Z 28014G20KT 23/04 A297 RMK A01 T02260038  RH  029%=      5-min Rain = 0
KPD2 082056Z 27013G22KT 23/04 A297 RMK A01 T02250039  RH  030%=      5-min Rain = 0
KPD2 082057Z 30014G20KT 23/04 A297 RMK A01 T02250039  RH  030%=      5-min Rain = 0
KPD2 082058Z 29014G21KT 23/04 A297 RMK A01 T02250039  RH  030%=      5-min Rain = 0
KPD2 082059Z 28012G17KT 22/04 A297 RMK A01 T02240039  RH  030%=      5-min Rain = 0
KPD2 082100Z 28013KT 22/04 A297 RMK A01 T02240039  RH  030%=      5-min Rain = 0
KPD2 082101Z 29012KT 22/04 A297 RMK A01 T02230039  RH  030%=      5-min Rain = 0
KPD2 082102Z 28010KT 22/04 A297 RMK A01 T02230039  RH  030%=      5-min Rain = 0
KPD2 082103Z 26013G20KT 22/04 A297 RMK A01 T02230039  RH  030%=      5-min Rain = 0
KPD2 082104Z 26014G19KT 22/04 A297 RMK A01 T02230039  RH  030%=      5-min Rain = 0
KPD2 082105Z 27012G21KT 22/04 A297 RMK A01 T02230040  RH  030%=      5-min Rain = 0
KPD2 082106Z 26012G20KT 22/04 A2969 RMK A01 T02220040  RH  030%=      5-min Rain = 0
KPD2 082107Z 26016G23KT 22/04 A2969 RMK A01 T02220039  RH  030%=      5-min Rain = 0
KPD2 082108Z 27010KT 22/04 A2969 RMK A01 T02230039  RH  030%=      5-min Rain = 0
KPD2 082109Z 27012KT 22/04 A2969 RMK A01 T02230039  RH  030%=      5-min Rain = 0
KPD2 082110Z 30012KT 22/04 A2969 RMK A01 T02230039  RH  030%=      5-min Rain = 0
KPD2 082111Z 28015G21KT 23/04 A2969 RMK A01 T02250039  RH  030%=      5-min Rain = 0
KPD2 082112Z 29017G26KT 23/04 A297 RMK A01 T02250038  RH  029%=      5-min Rain = 0
KPD2 082113Z 28015G20KT 23/04 A297 RMK A01 T02250037  RH  029%=      5-min Rain = 0
KPD2 082114Z 29013G25KT 23/04 A297 RMK A01 T02250038  RH  029%=      5-min Rain = 0
KPD2 082115Z 29018G27KT 23/04 A297 RMK A01 T02250037  RH  029%=      5-min Rain = 0
KPD2 082116Z 28016G21KT 23/04 A2969 RMK A01 T02250037  RH  029%=      5-min Rain = 0
KPD2 082117Z 28012G19KT 23/04 A2969 RMK A01 T02250037  RH  029%=      5-min Rain = 0
KPD2 082118Z 28010G19KT 23/04 A2969 RMK A01 T02250038  RH  030%=      5-min Rain = 0
KPD2 082119Z 28012G22KT 23/04 A2969 RMK A01 T02250038  RH  029%=      5-min Rain = 0
KPD2 082120Z 29014G23KT 22/04 A2969 RMK A01 T02240038  RH  029%=      5-min Rain = 0
KPD2 082121Z 29016G26KT 22/04 A2969 RMK A01 T02240038  RH  030%=      5-min Rain = 0
KPD2 082122Z 29011KT 22/04 A2969 RMK A01 T02230038  RH  030%=      5-min Rain = 0
KPD2 082123Z 28012KT 22/04 A2969 RMK A01 T02220039  RH  030%=      5-min Rain = 0
KPD2 082124Z 26012KT 22/04 A2969 RMK A01 T02220039  RH  030%=      5-min Rain = 0
KPD2 082125Z 30013G18KT 22/04 A2969 RMK A01 T02220039  RH  030%=      5-min Rain = 0
KPD2 082126Z 29018G30KT 22/04 A2969 RMK A01 T02220039  RH  030%=      5-min Rain = 0
KPD2 082127Z 27014G22KT 22/04 A2969 RMK A01 T02220038  RH  030%=      5-min Rain = 0
KPD2 082128Z 26012G27KT 22/04 A2969 RMK A01 T02220039  RH  030%=      5-min Rain = 0
KPD2 082129Z 28016G25KT 22/04 A2969 RMK A01 T02220038  RH  030%=      5-min Rain = 0
KPD2 082130Z 30016G21KT 22/04 A2969 RMK A01 T02210038  RH  030%=      5-min Rain = 0
KPD2 082131Z 29015G25KT 22/04 A2969 RMK A01 T02210038  RH  030%=      5-min Rain = 0
KPD2 082132Z 28015G24KT 22/04 A2969 RMK A01 T02210038  RH  030%=      5-min Rain = 0
KPD2 082133Z 28018G25KT 22/04 A2969 RMK A01 T02200037  RH  030%=      5-min Rain = 0
KPD2 082134Z 27015G21KT 22/04 A2969 RMK A01 T02200038  RH  030%=      5-min Rain = 0
KPD2 082135Z 27013G18KT 22/04 A2969 RMK A01 T02200038  RH  030%=      5-min Rain = 0
KPD2 082136Z 29013G20KT 22/04 A2969 RMK A01 T02200038  RH  030%=      5-min Rain = 0
KPD2 082137Z 28016G22KT 22/04 A2969 RMK A01 T02200038  RH  030%=      5-min Rain = 0
KPD2 082138Z 28014G19KT 22/04 A2969 RMK A01 T02200037  RH  030%=      5-min Rain = 0
KPD2 082139Z 28010G17KT 22/04 A2969 RMK A01 T02200037  RH  030%=      5-min Rain = 0
KPD2 082140Z 28014KT 22/04 A2969 RMK A01 T02200037  RH  030%=      5-min Rain = 0
KPD2 082141Z 28018G25KT 22/04 A2969 RMK A01 T02210036  RH  030%=      5-min Rain = 0
KPD2 082142Z 28018G25KT 22/04 A2969 RMK A01 T02210035  RH  030%=      5-min Rain = 0
KPD2 082143Z 27014G19KT 22/04 A2969 RMK A01 T02210035  RH  030%=      5-min Rain = 0
KPD2 082144Z 27012G21KT 22/04 A2969 RMK A01 T02210036  RH  030%=      5-min Rain = 0
KPD2 082145Z 28014KT 22/04 A2969 RMK A01 T02210036  RH  030%=      5-min Rain = 0
KPD2 082146Z 28011G16KT 22/04 A2969 RMK A01 T02210037  RH  030%=      5-min Rain = 0
KPD2 082147Z 28009KT 22/04 A2969 RMK A01 T02220038  RH  030%=      5-min Rain = 0
KPD2 082148Z 28011G17KT 22/04 A2969 RMK A01 T02210038  RH  030%=      5-min Rain = 0
KPD2 082149Z 27015G22KT 22/04 A297 RMK A01 T02210037  RH  030%=      5-min Rain = 0
KPD2 082150Z 27017G24KT 22/04 A297 RMK A01 T02210037  RH  030%=      5-min Rain = 0
KPD2 082151Z 28011G18KT 22/04 A297 RMK A01 T02200037  RH  030%=      5-min Rain = 0
KPD2 082152Z 27015G23KT 22/04 A2969 RMK A01 T02200037  RH  030%=      5-min Rain = 0
KPD2 082153Z 28012G20KT 22/04 A2969 RMK A01 T02190037  RH  030%=      5-min Rain = 0
KPD2 082154Z 29013G18KT 22/04 A2969 RMK A01 T02200038  RH  030%=      5-min Rain = 0
KPD2 082155Z 28014G19KT 22/04 A2969 RMK A01 T02200038  RH  030%=      5-min Rain = 0
KPD2 082156Z 29013G22KT 22/04 A2969 RMK A01 T02190039  RH  031%=      5-min Rain = 0
KPD2 082157Z 29011G19KT 22/04 A2969 RMK A01 T02190040  RH  031%=      5-min Rain = 0
KPD2 082158Z 26011KT 22/04 A2969 RMK A01 T02190041  RH  031%=      5-min Rain = 0
KPD2 082159Z 28011G22KT 22/04 A2969 RMK A01 T02190041  RH  031%=      5-min Rain = 0
KPD2 082200Z 28015G23KT 22/04 A2969 RMK A01 T02180040  RH  031%=      5-min Rain = 0
KPD2 082201Z 28016KT 22/04 A297 RMK A01 T02170040  RH  031%=      5-min Rain = 0
KPD2 082202Z 29015KT 22/04 A2969 RMK A01 T02170040  RH  031%=      5-min Rain = 0
KPD2 082203Z 27017G26KT 22/04 A297 RMK A01 T02160039  RH  031%=      5-min Rain = 0
KPD2 082204Z 28015G23KT 22/04 A2969 RMK A01 T02150039  RH  031%=      5-min Rain = 0
KPD2 082205Z 28017KT 21/04 A297 RMK A01 T02140038  RH  031%=      5-min Rain = 0
KPD2 082206Z 28010G17KT 21/04 A2969 RMK A01 T02140038  RH  032%=      5-min Rain = 0
KPD2 082207Z 30014G21KT 21/04 A2969 RMK A01 T02130038  RH  032%=      5-min Rain = 0
KPD2 082208Z 29009G14KT 21/04 A2969 RMK A01 T02120037  RH  032%=      5-min Rain = 0
KPD2 082209Z 28012G17KT 21/04 A2969 RMK A01 T02120038  RH  032%=      5-min Rain = 0
KPD2 082210Z 27015G24KT 21/04 A2969 RMK A01 T02120037  RH  032%=      5-min Rain = 0
KPD2 082211Z 29016G22KT 21/04 A2969 RMK A01 T02120036  RH  031%=      5-min Rain = 0
KPD2 082212Z 28022G30KT 21/04 A297 RMK A01 T02120036  RH  031%=      5-min Rain = 0
KPD2 082213Z 29017G25KT 21/04 A2969 RMK A01 T02120035  RH  031%=      5-min Rain = 0
KPD2 082214Z 28018G27KT 21/04 A297 RMK A01 T02120035  RH  031%=      5-min Rain = 0
KPD2 082215Z 26018G26KT 21/04 A297 RMK A01 T02120035  RH  031%=      5-min Rain = 0
KPD2 082216Z 28014G27KT 21/03 A2969 RMK A01 T02120034  RH  031%=      5-min Rain = 0
KPD2 082217Z 27015G24KT 21/04 A297 RMK A01 T02120035  RH  031%=      5-min Rain = 0
KPD2 082218Z 29010KT 21/04 A297 RMK A01 T02120035  RH  031%=      5-min Rain = 0
KPD2 082219Z 27013G25KT 21/04 A297 RMK A01 T02120036  RH  031%=      5-min Rain = 0
KPD2 082220Z 29013G19KT 21/04 A297 RMK A01 T02130035  RH  031%=      5-min Rain = 0
KPD2 082221Z 28015G22KT 21/04 A297 RMK A01 T02120035  RH  031%=      5-min Rain = 0
KPD2 082222Z 28018G29KT 21/04 A297 RMK A01 T02130035  RH  031%=      5-min Rain = 0
KPD2 082223Z 29016G24KT 21/04 A297 RMK A01 T02130035  RH  031%=      5-min Rain = 0
KPD2 082224Z 27017G23KT 21/04 A297 RMK A01 T02130035  RH  031%=      5-min Rain = 0
KPD2 082225Z 28015G24KT 21/04 A2969 RMK A01 T02130035  RH  031%=      5-min Rain = 0
KPD2 082226Z 29014G23KT 21/04 A2969 RMK A01 T02130036  RH  031%=      5-min Rain = 0
KPD2 082227Z 28015G21KT 21/04 A2969 RMK A01 T02120036  RH  031%=      5-min Rain = 0
KPD2 082228Z 29015G20KT 21/04 A297 RMK A01 T02130036  RH  031%=      5-min Rain = 0
KPD2 082229Z 29011G16KT 21/04 A297 RMK A01 T02130036  RH  031%=      5-min Rain = 0
KPD2 082230Z 29012KT 21/04 A297 RMK A01 T02130037  RH  032%=      5-min Rain = 0
KPD2 082231Z 29018G27KT 21/04 A297 RMK A01 T02130037  RH  032%=      5-min Rain = 0
KPD2 082232Z 29015G21KT 21/04 A297 RMK A01 T02130037  RH  032%=      5-min Rain = 0
KPD2 082233Z 30015G23KT 21/04 A297 RMK A01 T02120037  RH  032%=      5-min Rain = 0
KPD2 082234Z 29010G16KT 21/04 A297 RMK A01 T02120038  RH  032%=      5-min Rain = 0
KPD2 082235Z 29011G17KT 21/04 A297 RMK A01 T02120038  RH  032%=      5-min Rain = 0
KPD2 082236Z 28008G13KT 21/04 A297 RMK A01 T02120039  RH  032%=      5-min Rain = 0
KPD2 082237Z 29010KT 21/04 A297 RMK A01 T02110039  RH  032%=      5-min Rain = 0
KPD2 082238Z 29014G20KT 21/04 A297 RMK A01 T02100039  RH  032%=      5-min Rain = 0
KPD2 082239Z 28012G17KT 21/04 A2971 RMK A01 T02100039  RH  033%=      5-min Rain = 0
KPD2 082240Z 29015G24KT 21/04 A2971 RMK A01 T02090039  RH  033%=      5-min Rain = 0
KPD2 082241Z 28012G17KT 21/04 A2971 RMK A01 T02080038  RH  033%=      5-min Rain = 0
KPD2 082242Z 27019G28KT 21/04 A2971 RMK A01 T02070038  RH  033%=      5-min Rain = 0
KPD2 082243Z 28014G20KT 21/04 A297 RMK A01 T02070037  RH  033%=      5-min Rain = 0
KPD2 082244Z 29013G19KT 21/04 A297 RMK A01 T02060037  RH  033%=      5-min Rain = 0
KPD2 082245Z 28014G20KT 21/04 A297 RMK A01 T02060037  RH  033%=      5-min Rain = 0
KPD2 082246Z 27015G25KT 21/04 A297 RMK A01 T02050036  RH  033%=      5-min Rain = 0
KPD2 082247Z 27011G18KT 21/04 A297 RMK A01 T02050036  RH  033%=      5-min Rain = 0
KPD2 082248Z 29011KT 21/04 A297 RMK A01 T02050036  RH  033%=      5-min Rain = 0
KPD2 082249Z 29015G23KT 20/04 A297 RMK A01 T02040036  RH  033%=      5-min Rain = 0
KPD2 082250Z 29016G23KT 20/04 A297 RMK A01 T02030036  RH  033%=      5-min Rain = 0
KPD2 082251Z 29017KT 20/04 A297 RMK A01 T02030036  RH  033%=      5-min Rain = 0
KPD2 082252Z 28016G25KT 20/04 A2971 RMK A01 T02030036  RH  033%=      5-min Rain = 0
KPD2 082253Z 28013G18KT 20/04 A297 RMK A01 T02030036  RH  033%=      5-min Rain = 0
KPD2 082254Z 29011G18KT 20/04 A2971 RMK A01 T02030036  RH  033%=      5-min Rain = 0
KPD2 082255Z 28012G18KT 20/04 A2971 RMK A01 T02020036  RH  033%=      5-min Rain = 0
KPD2 082256Z 29008G18KT 20/04 A2971 RMK A01 T02010036  RH  034%=      5-min Rain = 0
KPD2 082257Z 28017G22KT 20/04 A2971 RMK A01 T02010036  RH  034%=      5-min Rain = 0
KPD2 082258Z 29013G18KT 20/04 A2971 RMK A01 T02010036  RH  034%=      5-min Rain = 0
KPD2 082259Z 27012G20KT 20/04 A2971 RMK A01 T02010037  RH  034%=      5-min Rain = 0
KPD2 082300Z 27014G23KT 20/04 A2971 RMK A01 T02010037  RH  034%=      5-min Rain = 0
KPD2 082301Z 29013G18KT 20/04 A2971 RMK A01 T02010037  RH  034%=      5-min Rain = 0
KPD2 082302Z 28011KT 20/04 A2971 RMK A01 T02000037  RH  034%=      5-min Rain = 0
KPD2 082303Z 26010G15KT 20/04 A2971 RMK A01 T02000037  RH  034%=      5-min Rain = 0
KPD2 082304Z 29009G14KT 20/04 A2971 RMK A01 T01990037  RH  034%=      5-min Rain = 0
KPD2 082305Z 29010KT 20/04 A2971 RMK A01 T01990038  RH  034%=      5-min Rain = 0
KPD2 082306Z 29008G13KT 20/04 A2971 RMK A01 T01980038  RH  035%=      5-min Rain = 0
KPD2 082307Z 30012G19KT 20/04 A2971 RMK A01 T01980038  RH  035%=      5-min Rain = 0
KPD2 082308Z 29010KT 20/04 A2971 RMK A01 T01970037  RH  035%=      5-min Rain = 0
KPD2 082309Z 27010KT 20/04 A2971 RMK A01 T01970038  RH  035%=      5-min Rain = 0
KPD2 082310Z 28010KT 20/04 A2971 RMK A01 T01970038  RH  035%=      5-min Rain = 0
KPD2 082311Z 28012G17KT 20/04 A297 RMK A01 T01970038  RH  035%=      5-min Rain = 0
KPD2 082312Z 29011G19KT 20/04 A297 RMK A01 T01960038  RH  035%=      5-min Rain = 0
KPD2 082313Z 26017G24KT 20/04 A297 RMK A01 T01960037  RH  035%=      5-min Rain = 0
KPD2 082314Z 27018G23KT 20/04 A2971 RMK A01 T01960037  RH  035%=      5-min Rain = 0
KPD2 082315Z 28013KT 20/04 A2971 RMK A01 T01970037  RH  035%=      5-min Rain = 0
KPD2 082316Z 28011G16KT 20/04 A2971 RMK A01 T01970037  RH  035%=      5-min Rain = 0
KPD2 082317Z 28010G17KT 20/04 A2971 RMK A01 T01960037  RH  035%=      5-min Rain = 0
KPD2 082318Z 28013KT 20/04 A297 RMK A01 T01950037  RH  035%=      5-min Rain = 0
KPD2 082319Z 26012KT 20/04 A297 RMK A01 T01950037  RH  035%=      5-min Rain = 0
KPD2 082320Z 30011KT 20/04 A297 RMK A01 T01950037  RH  035%=      5-min Rain = 0
KPD2 082321Z 27011KT 19/04 A2971 RMK A01 T01940037  RH  035%=      5-min Rain = 0
KPD2 082322Z 27008KT 19/04 A297 RMK A01 T01940037  RH  036%=      5-min Rain = 0
KPD2 082323Z 27007KT 19/04 A297 RMK A01 T01930038  RH  036%=      5-min Rain = 0
KPD2 082324Z 26010G19KT 19/04 A297 RMK A01 T01920037  RH  036%=      5-min Rain = 0
KPD2 082325Z 27013KT 19/04 A297 RMK A01 T01920038  RH  036%=      5-min Rain = 0
KPD2 082326Z 27012G19KT 19/04 A2971 RMK A01 T01910038  RH  036%=      5-min Rain = 0
KPD2 082327Z 28013G21KT 19/04 A2971 RMK A01 T01910038  RH  036%=      5-min Rain = 0
KPD2 082328Z 27016KT 19/04 A2971 RMK A01 T01920038  RH  036%=      5-min Rain = 0
KPD2 082329Z 29010G18KT 19/04 A2971 RMK A01 T01920039  RH  036%=      5-min Rain = 0
KPD2 082330Z 28016G23KT 19/04 A2971 RMK A01 T01910038  RH  036%=      5-min Rain = 0
KPD2 082331Z 28011G17KT 19/04 A297 RMK A01 T01920039  RH  036%=      5-min Rain = 0
KPD2 082332Z 28012G17KT 19/04 A297 RMK A01 T01910039  RH  036%=      5-min Rain = 0
KPD2 082333Z 28013G19KT 19/04 A297 RMK A01 T01910039  RH  037%=      5-min Rain = 0
KPD2 082334Z 27011G16KT 19/04 A297 RMK A01 T01900039  RH  037%=      5-min Rain = 0
KPD2 082335Z 28013G21KT 19/04 A297 RMK A01 T01900039  RH  037%=      5-min Rain = 0
KPD2 082336Z 28014KT 19/04 A297 RMK A01 T01890039  RH  037%=      5-min Rain = 0
KPD2 082337Z 27012G17KT 19/04 A297 RMK A01 T01890039  RH  037%=      5-min Rain = 0
KPD2 082338Z 28012G21KT 19/04 A297 RMK A01 T01890039  RH  037%=      5-min Rain = 0
KPD2 082339Z 28009G15KT 19/04 A2971 RMK A01 T01890039  RH  037%=      5-min Rain = 0
KPD2 082340Z 28011G17KT 19/04 A2971 RMK A01 T01890039  RH  037%=      5-min Rain = 0
KPD2 082341Z 28012G17KT 19/04 A2971 RMK A01 T01880038  RH  037%=      5-min Rain = 0
KPD2 082342Z 27014G20KT 19/04 A2971 RMK A01 T01880037  RH  037%=      5-min Rain = 0
KPD2 082343Z 28010G15KT 19/04 A2971 RMK A01 T01880037  RH  037%=      5-min Rain = 0
KPD2 082344Z 28006KT 19/04 A2971 RMK A01 T01880038  RH  037%=      5-min Rain = 0
KPD2 082345Z 30007KT 19/04 A2971 RMK A01 T01880037  RH  037%=      5-min Rain = 0
KPD2 082346Z 29011G16KT 19/04 A2971 RMK A01 T01860037  RH  037%=      5-min Rain = 0
KPD2 082347Z 28011G16KT 19/04 A2971 RMK A01 T01860036  RH  037%=      5-min Rain = 0
KPD2 082348Z 28009KT 19/04 A2971 RMK A01 T01860036  RH  037%=      5-min Rain = 0
KPD2 082349Z 28013KT 19/04 A2971 RMK A01 T01860035  RH  037%=      5-min Rain = 0
KPD2 082350Z 27016G21KT 19/04 A2971 RMK A01 T01860035  RH  037%=      5-min Rain = 0
KPD2 082351Z 27012KT 19/04 A2971 RMK A01 T01870035  RH  036%=      5-min Rain = 0
KPD2 082352Z 27015G21KT 19/04 A2971 RMK A01 T01870035  RH  036%=      5-min Rain = 0
KPD2 082353Z 30011G16KT 19/04 A2971 RMK A01 T01870035  RH  036%=      5-min Rain = 0
KPD2 082354Z 28012G18KT 19/03 A2971 RMK A01 T01860034  RH  036%=      5-min Rain = 0
KPD2 082355Z 27011G17KT 19/03 A2971 RMK A01 T01860034  RH  036%=      5-min Rain = 0
KPD2 082356Z 28013KT 19/03 A2971 RMK A01 T01860034  RH  036%=      5-min Rain = 0
KPD2 082357Z 28011G16KT 19/03 A2971 RMK A01 T01860034  RH  036%=      5-min Rain = 0
KPD2 082358Z 28013G19KT 19/03 A2971 RMK A01 T01860034  RH  037%=      5-min Rain = 0
KPD2 082359Z 27011KT 19/04 A2971 RMK A01 T01860035  RH  037%=      5-min Rain = 0
KPD2 090000Z 27013G19KT 19/03 A2971 RMK A01 T01860034  RH  037%=      5-min Rain = 0
KPD2 090001Z 28016KT 19/03 A2971 RMK A01 T01850034  RH  037%=      5-min Rain = 0
KPD2 090002Z 28014G24KT 19/04 A2971 RMK A01 T01850035  RH  037%=      5-min Rain = 0
KPD2 090003Z 28013G19KT 19/04 A2972 RMK A01 T01850035  RH  037%=      5-min Rain = 0
KPD2 090004Z 28011G17KT 19/04 A2972 RMK A01 T01850035  RH  037%=      5-min Rain = 0
KPD2 090005Z 29010G21KT 18/04 A2972 RMK A01 T01840035  RH  037%=      5-min Rain = 0
KPD2 090006Z 27013G19KT 18/04 A2972 RMK A01 T01840035  RH  037%=      5-min Rain = 0
KPD2 090007Z 28013G23KT 18/04 A2971 RMK A01 T01840035  RH  037%=      5-min Rain = 0
KPD2 090008Z 28016G21KT 18/04 A2971 RMK A01 T01830035  RH  037%=      5-min Rain = 0
KPD2 090009Z 27017KT 18/04 A2971 RMK A01 T01830036  RH  037%=      5-min Rain = 0
KPD2 090010Z 27013G21KT 18/04 A2971 RMK A01 T01830036  RH  037%=      5-min Rain = 0
KPD2 090011Z 28011G21KT 18/04 A2971 RMK A01 T01830036  RH  037%=      5-min Rain = 0
KPD2 090012Z 28015G22KT 18/04 A2971 RMK A01 T01830036  RH  038%=      5-min Rain = 0
KPD2 090013Z 27010G15KT 18/04 A2971 RMK A01 T01830036  RH  038%=      5-min Rain = 0
KPD2 090014Z 28010KT 18/04 A2971 RMK A01 T01820036  RH  038%=      5-min Rain = 0
KPD2 090015Z 29017G22KT 18/04 A2971 RMK A01 T01820036  RH  038%=      5-min Rain = 0
KPD2 090016Z 28009KT 18/04 A2971 RMK A01 T01820037  RH  038%=      5-min Rain = 0
KPD2 090017Z 27010KT 18/04 A2971 RMK A01 T01810036  RH  038%=      5-min Rain = 0
KPD2 090018Z 28009G14KT 18/04 A2972 RMK A01 T01810036  RH  038%=      5-min Rain = 0
KPD2 090019Z 28010KT 18/04 A2972 RMK A01 T01800036  RH  038%=      5-min Rain = 0
KPD2 090020Z 29009G18KT 18/04 A2971 RMK A01 T01800037  RH  039%=      5-min Rain = 0
KPD2 090021Z 27012G23KT 18/04 A2972 RMK A01 T01790037  RH  039%=      5-min Rain = 0
KPD2 090022Z 29010G17KT 18/04 A2972 RMK A01 T01790037  RH  039%=      5-min Rain = 0
KPD2 090023Z 28012G17KT 18/04 A2972 RMK A01 T01780037  RH  039%=      5-min Rain = 0
KPD2 090024Z 28011G16KT 18/04 A2972 RMK A01 T01780037  RH  039%=      5-min Rain = 0
KPD2 090025Z 28012KT 18/04 A2972 RMK A01 T01780037  RH  039%=      5-min Rain = 0
KPD2 090026Z 28008KT 18/04 A2972 RMK A01 T01780037  RH  039%=      5-min Rain = 0
KPD2 090027Z 26013G18KT 18/04 A2972 RMK A01 T01770037  RH  039%=      5-min Rain = 0
KPD2 090028Z 28011G17KT 18/04 A2972 RMK A01 T01770037  RH  039%=      5-min Rain = 0
KPD2 090029Z 29012G17KT 18/04 A2972 RMK A01 T01770037  RH  039%=      5-min Rain = 0
KPD2 090030Z 28011G18KT 18/04 A2972 RMK A01 T01770037  RH  039%=      5-min Rain = 0
KPD2 090031Z 27015KT 18/04 A2972 RMK A01 T01760036  RH  039%=      5-min Rain = 0
KPD2 090032Z 28011G17KT 18/04 A2972 RMK A01 T01760036  RH  039%=      5-min Rain = 0
KPD2 090033Z 27013KT 18/04 A2972 RMK A01 T01760036  RH  039%=      5-min Rain = 0
KPD2 090034Z 27009G18KT 18/04 A2972 RMK A01 T01760036  RH  039%=      5-min Rain = 0
KPD2 090035Z 27014G19KT 18/04 A2972 RMK A01 T01760036  RH  039%=      5-min Rain = 0
KPD2 090036Z 28011G17KT 18/04 A2972 RMK A01 T01760036  RH  039%=      5-min Rain = 0
KPD2 090037Z 27015KT 18/04 A2972 RMK A01 T01760036  RH  039%=      5-min Rain = 0
KPD2 090038Z 27015KT 18/04 A2972 RMK A01 T01750036  RH  039%=      5-min Rain = 0
KPD2 090039Z 27014G20KT 18/04 A2972 RMK A01 T01760036  RH  039%=      5-min Rain = 0
KPD2 090040Z 28012G17KT 18/04 A2972 RMK A01 T01750036  RH  039%=      5-min Rain = 0
KPD2 090041Z 26012G20KT 18/04 A2972 RMK A01 T01750036  RH  039%=      5-min Rain = 0
KPD2 090042Z 27013KT 18/04 A2972 RMK A01 T01750036  RH  040%=      5-min Rain = 0
KPD2 090043Z 28010G16KT 17/04 A2973 RMK A01 T01740036  RH  040%=      5-min Rain = 0
KPD2 090044Z 28011G16KT 17/04 A2972 RMK A01 T01740036  RH  040%=      5-min Rain = 0
KPD2 090045Z 28011G17KT 17/04 A2972 RMK A01 T01730036  RH  040%=      5-min Rain = 0
KPD2 090046Z 28012G20KT 17/04 A2972 RMK A01 T01730036  RH  040%=      5-min Rain = 0
KPD2 090047Z 29011G16KT 17/04 A2972 RMK A01 T01730036  RH  040%=      5-min Rain = 0
KPD2 090048Z 28011G17KT 17/04 A2972 RMK A01 T01730036  RH  040%=      5-min Rain = 0
KPD2 090049Z 28006G11KT 17/04 A2972 RMK A01 T01730036  RH  040%=      5-min Rain = 0
KPD2 090050Z 28011G19KT 17/04 A2972 RMK A01 T01730036  RH  040%=      5-min Rain = 0
KPD2 090051Z 28009KT 17/04 A2972 RMK A01 T01730036  RH  040%=      5-min Rain = 0
KPD2 090052Z 27008G14KT 17/04 A2972 RMK A01 T01720036  RH  040%=      5-min Rain = 0
KPD2 090053Z 27011KT 17/04 A2972 RMK A01 T01720035  RH  040%=      5-min Rain = 0
KPD2 090054Z 29007KT 17/04 A2972 RMK A01 T01720036  RH  040%=      5-min Rain = 0
KPD2 090055Z 28008KT 17/04 A2972 RMK A01 T01710035  RH  040%=      5-min Rain = 0
KPD2 090056Z 26011KT 17/04 A2972 RMK A01 T01710035  RH  040%=      5-min Rain = 0
KPD2 090057Z 28009KT 17/04 A2972 RMK A01 T01700035  RH  040%=      5-min Rain = 0
KPD2 090058Z 28006G14KT 17/04 A2973 RMK A01 T01700035  RH  040%=      5-min Rain = 0
KPD2 090059Z 28008KT 17/03 A2972 RMK A01 T01690034  RH  041%=      5-min Rain = 0
KPD2 090100Z 29006KT 17/04 A2972 RMK A01 T01690035  RH  041%=      5-min Rain = 0
KPD2 090101Z 27010KT 17/04 A2972 RMK A01 T01690035  RH  041%=      5-min Rain = 0
KPD2 090102Z 28010G16KT 17/03 A2972 RMK A01 T01690034  RH  041%=      5-min Rain = 0
KPD2 090103Z 28015G20KT 17/03 A2972 RMK A01 T01700034  RH  040%=      5-min Rain = 0
KPD2 090104Z 28009G16KT 17/03 A2973 RMK A01 T01700034  RH  040%=      5-min Rain = 0
KPD2 090105Z 28013G20KT 17/03 A2973 RMK A01 T01700034  RH  040%=      5-min Rain = 0
KPD2 090106Z 27011KT 17/03 A2973 RMK A01 T01700034  RH  040%=      5-min Rain = 0
KPD2 090107Z 28012G19KT 17/03 A2973 RMK A01 T01700034  RH  040%=      5-min Rain = 0
KPD2 090108Z 27015G21KT 17/03 A2973 RMK A01 T01690034  RH  040%=      5-min Rain = 0
KPD2 090109Z 28015G20KT 17/03 A2973 RMK A01 T01690034  RH  040%=      5-min Rain = 0
KPD2 090110Z 29013KT 17/03 A2973 RMK A01 T01690034  RH  040%=      5-min Rain = 0
KPD2 090111Z 27009G17KT 17/03 A2973 RMK A01 T01690034  RH  040%=      5-min Rain = 0
KPD2 090112Z 27012G17KT 17/03 A2973 RMK A01 T01690034  RH  041%=      5-min Rain = 0
KPD2 090113Z 28012G19KT 17/03 A2973 RMK A01 T01690034  RH  041%=      5-min Rain = 0
KPD2 090114Z 28010KT 17/03 A2973 RMK A01 T01690034  RH  041%=      5-min Rain = 0
KPD2 090115Z 28010KT 17/03 A2973 RMK A01 T01680034  RH  041%=      5-min Rain = 0
KPD2 090116Z 27012G18KT 17/03 A2973 RMK A01 T01670034  RH  041%=      5-min Rain = 0
KPD2 090117Z 28011G20KT 17/03 A2973 RMK A01 T01670034  RH  041%=      5-min Rain = 0
KPD2 090118Z 28008G14KT 17/03 A2973 RMK A01 T01660034  RH  041%=      5-min Rain = 0
KPD2 090119Z 28011KT 17/03 A2973 RMK A01 T01660034  RH  041%=      5-min Rain = 0
KPD2 090120Z 28010G15KT 17/04 A2973 RMK A01 T01660035  RH  041%=      5-min Rain = 0
KPD2 090121Z 28013KT 17/04 A2973 RMK A01 T01660035  RH  042%=      5-min Rain = 0
KPD2 090122Z 28007G15KT 17/04 A2973 RMK A01 T01660035  RH  042%=      5-min Rain = 0
KPD2 090123Z 30007KT 17/04 A2973 RMK A01 T01650035  RH  042%=      5-min Rain = 0
KPD2 090124Z 29012G17KT 17/04 A2973 RMK A01 T01650035  RH  042%=      5-min Rain = 0
KPD2 090125Z 28011G16KT 16/04 A2973 RMK A01 T01640035  RH  042%=      5-min Rain = 0
KPD2 090126Z 30006KT 16/04 A2973 RMK A01 T01640035  RH  042%=      5-min Rain = 0
KPD2 090127Z 29013G19KT 16/04 A2973 RMK A01 T01630035  RH  042%=      5-min Rain = 0
KPD2 090128Z 31010KT 16/04 A2973 RMK A01 T01630035  RH  042%=      5-min Rain = 0
KPD2 090129Z 30011G18KT 16/04 A2973 RMK A01 T01630035  RH  042%=      5-min Rain = 0
KPD2 090130Z 28013G18KT 16/04 A2973 RMK A01 T01640036  RH  042%=      5-min Rain = 0
KPD2 090131Z 28012G20KT 16/04 A2973 RMK A01 T01640036  RH  042%=      5-min Rain = 0
KPD2 090132Z 29012KT 17/04 A2973 RMK A01 T01650036  RH  042%=      5-min Rain = 0
KPD2 090133Z 29008KT 17/04 A2973 RMK A01 T01650036  RH  042%=      5-min Rain = 0
KPD2 090134Z 28012KT 17/04 A2974 RMK A01 T01650036  RH  042%=      5-min Rain = 0
KPD2 090135Z 28012G18KT 17/04 A2973 RMK A01 T01650037  RH  042%=      5-min Rain = 0
KPD2 090136Z 28010G15KT 17/04 A2973 RMK A01 T01650037  RH  042%=      5-min Rain = 0
KPD2 090137Z 28014G19KT 17/04 A2973 RMK A01 T01660037  RH  042%=      5-min Rain = 0
KPD2 090138Z 29014G25KT 17/04 A2973 RMK A01 T01650037  RH  042%=      5-min Rain = 0
KPD2 090139Z 28013KT 17/04 A2973 RMK A01 T01650037  RH  042%=      5-min Rain = 0
KPD2 090140Z 28009KT 17/04 A2973 RMK A01 T01650038  RH  042%=      5-min Rain = 0
KPD2 090141Z 27013KT 16/04 A2973 RMK A01 T01640037  RH  043%=      5-min Rain = 0
KPD2 090142Z 28009G14KT 16/04 A2973 RMK A01 T01640038  RH  043%=      5-min Rain = 0
KPD2 090143Z 29012KT 16/04 A2973 RMK A01 T01630037  RH  043%=      5-min Rain = 0
KPD2 090144Z 27011G22KT 16/04 A2973 RMK A01 T01630038  RH  043%=      5-min Rain = 0
KPD2 090145Z 28016KT 16/04 A2973 RMK A01 T01630038  RH  043%=      5-min Rain = 0
KPD2 090146Z 27013KT 16/04 A2973 RMK A01 T01630038  RH  043%=      5-min Rain = 0
KPD2 090147Z 27013G19KT 16/04 A2973 RMK A01 T01630038  RH  043%=      5-min Rain = 0
KPD2 090148Z 28012G22KT 16/04 A2973 RMK A01 T01630038  RH  043%=      5-min Rain = 0
KPD2 090149Z 26018G26KT 16/04 A2973 RMK A01 T01630038  RH  043%=      5-min Rain = 0
KPD2 090150Z 28013G21KT 16/04 A2973 RMK A01 T01630038  RH  043%=      5-min Rain = 0
KPD2 090151Z 29015G22KT 16/04 A2973 RMK A01 T01620037  RH  043%=      5-min Rain = 0
KPD2 090152Z 28015G24KT 16/04 A2973 RMK A01 T01620037  RH  043%=      5-min Rain = 0
KPD2 090153Z 26015G20KT 16/04 A2973 RMK A01 T01620036  RH  043%=      5-min Rain = 0
KPD2 090154Z 27015G21KT 16/04 A2973 RMK A01 T01620036  RH  043%=      5-min Rain = 0
KPD2 090155Z 28010G16KT 16/04 A2973 RMK A01 T01610036  RH  043%=      5-min Rain = 0
KPD2 090156Z 28013KT 16/04 A2972 RMK A01 T01610035  RH  043%=      5-min Rain = 0
KPD2 090157Z 28011KT 16/04 A2973 RMK A01 T01600035  RH  043%=      5-min Rain = 0
KPD2 090158Z 27012G17KT 16/03 A2973 RMK A01 T01590034  RH  043%=      5-min Rain = 0
KPD2 090159Z 28010G15KT 16/03 A2973 RMK A01 T01590034  RH  043%=      5-min Rain = 0
KPD2 090200Z 28014G19KT 16/03 A2973 RMK A01 T01590034  RH  043%=      5-min Rain = 0
KPD2 090201Z 28010G16KT 16/03 A2973 RMK A01 T01590033  RH  043%=      5-min Rain = 0
KPD2 090202Z 28012G18KT 16/03 A2973 RMK A01 T01580032  RH  043%=      5-min Rain = 0
KPD2 090203Z 28014KT 16/03 A2973 RMK A01 T01580032  RH  043%=      5-min Rain = 0
KPD2 090204Z 27011G17KT 16/03 A2973 RMK A01 T01580031  RH  043%=      5-min Rain = 0
KPD2 090205Z 29013G19KT 16/03 A2973 RMK A01 T01580032  RH  043%=      5-min Rain = 0
KPD2 090206Z 28011G17KT 16/03 A2973 RMK A01 T01580031  RH  043%=      5-min Rain = 0
KPD2 090207Z 27016KT 16/03 A2973 RMK A01 T01570030  RH  043%=      5-min Rain = 0
KPD2 090208Z 28015KT 16/03 A2973 RMK A01 T01570031  RH  043%=      5-min Rain = 0
KPD2 090209Z 29015G21KT 16/03 A2973 RMK A01 T01570030  RH  043%=      5-min Rain = 0
KPD2 090210Z 27018G27KT 16/03 A2973 RMK A01 T01570030  RH  042%=      5-min Rain = 0
KPD2 090211Z 27017G28KT 16/03 A2973 RMK A01 T01570030  RH  042%=      5-min Rain = 0
KPD2 090212Z 27014G22KT 16/03 A2973 RMK A01 T01570029  RH  042%=      5-min Rain = 0
KPD2 090213Z 27017G28KT 16/03 A2973 RMK A01 T01570029  RH  042%=      5-min Rain = 0
KPD2 090214Z 28017G27KT 16/03 A2973 RMK A01 T01570029  RH  042%=      5-min Rain = 0
KPD2 090215Z 27013G24KT 16/03 A2973 RMK A01 T01570029  RH  042%=      5-min Rain = 0
KPD2 090216Z 28013G23KT 16/03 A2973 RMK A01 T01570029  RH  042%=      5-min Rain = 0
KPD2 090217Z 27011G19KT 16/03 A2973 RMK A01 T01560029  RH  043%=      5-min Rain = 0
KPD2 090218Z 28013G20KT 16/03 A2973 RMK A01 T01560030  RH  043%=      5-min Rain = 0
KPD2 090219Z 28017G24KT 16/03 A2973 RMK A01 T01550029  RH  043%=      5-min Rain = 0
KPD2 090220Z 28014G19KT 16/03 A2973 RMK A01 T01550029  RH  043%=      5-min Rain = 0
KPD2 090221Z 27015G26KT 16/03 A2973 RMK A01 T01550029  RH  043%=      5-min Rain = 0
KPD2 090222Z 28016G25KT 16/03 A2972 RMK A01 T01550029  RH  043%=      5-min Rain = 0
KPD2 090223Z 28013G19KT 16/03 A2972 RMK A01 T01550029  RH  043%=      5-min Rain = 0
KPD2 090224Z 27014G20KT 15/03 A2972 RMK A01 T01540029  RH  043%=      5-min Rain = 0
KPD2 090225Z 29012G19KT 15/03 A2973 RMK A01 T01530029  RH  043%=      5-min Rain = 0
KPD2 090226Z 28013KT 15/03 A2973 RMK A01 T01530029  RH  043%=      5-min Rain = 0
KPD2 090227Z 27013G22KT 15/03 A2973 RMK A01 T01530029  RH  043%=      5-min Rain = 0
KPD2 090228Z 28015G25KT 15/03 A2973 RMK A01 T01520029  RH  043%=      5-min Rain = 0
KPD2 090229Z 26015G25KT 15/03 A2973 RMK A01 T01520029  RH  044%=      5-min Rain = 0
KPD2 090230Z 28011G18KT 15/03 A2973 RMK A01 T01510029  RH  044%=      5-min Rain = 0
KPD2 090231Z 28012KT 15/03 A2973 RMK A01 T01510029  RH  044%=      5-min Rain = 0
KPD2 090232Z 28014KT 15/03 A2973 RMK A01 T01500029  RH  044%=      5-min Rain = 0
KPD2 090233Z 28013G18KT 15/03 A2973 RMK A01 T01510029  RH  044%=      5-min Rain = 0
KPD2 090234Z 27012G18KT 15/03 A2973 RMK A01 T01500029  RH  044%=      5-min Rain = 0
KPD2 090235Z 28011G16KT 15/03 A2973 RMK A01 T01500028  RH  044%=      5-min Rain = 0
KPD2 090236Z 28011G17KT 15/03 A2973 RMK A01 T01500029  RH  044%=      5-min Rain = 0
KPD2 090237Z 26010G16KT 15/03 A2972 RMK A01 T01490028  RH  044%=      5-min Rain = 0
KPD2 090238Z 28012G18KT 15/03 A2972 RMK A01 T01490028  RH  044%=      5-min Rain = 0
KPD2 090239Z 27016G25KT 15/03 A2972 RMK A01 T01480028  RH  044%=      5-min Rain = 0
KPD2 090240Z 27011G22KT 15/03 A2973 RMK A01 T01480028  RH  044%=      5-min Rain = 0
KPD2 090241Z 28008G13KT 15/03 A2973 RMK A01 T01490028  RH  044%=      5-min Rain = 0
KPD2 090242Z 27016G22KT 15/03 A2972 RMK A01 T01490028  RH  044%=      5-min Rain = 0
KPD2 090243Z 28012G17KT 15/03 A2972 RMK A01 T01480027  RH  044%=      5-min Rain = 0
KPD2 090244Z 27012KT 15/03 A2972 RMK A01 T01480027  RH  044%=      5-min Rain = 0
KPD2 090245Z 27012G18KT 15/03 A2972 RMK A01 T01480027  RH  044%=      5-min Rain = 0
KPD2 090246Z 28015G20KT 15/03 A2973 RMK A01 T01480028  RH  044%=      5-min Rain = 0
KPD2 090247Z 28014G21KT 15/03 A2973 RMK A01 T01470027  RH  044%=      5-min Rain = 0
KPD2 090248Z 28011G18KT 15/03 A2973 RMK A01 T01470027  RH  044%=      5-min Rain = 0
KPD2 090249Z 28010G17KT 15/03 A2973 RMK A01 T01470028  RH  045%=      5-min Rain = 0
KPD2 090250Z 29016G25KT 15/03 A2973 RMK A01 T01460028  RH  045%=      5-min Rain = 0
KPD2 090251Z 28011G16KT 15/03 A2972 RMK A01 T01460027  RH  045%=      5-min Rain = 0
KPD2 090252Z 29009G15KT 15/03 A2973 RMK A01 T01470028  RH  045%=      5-min Rain = 0
KPD2 090253Z 29011G18KT 15/03 A2972 RMK A01 T01450027  RH  045%=      5-min Rain = 0
KPD2 090254Z 29011G16KT 15/03 A2972 RMK A01 T01450028  RH  045%=      5-min Rain = 0
KPD2 090255Z 28012G20KT 14/03 A2973 RMK A01 T01440027  RH  045%=      5-min Rain = 0
KPD2 090256Z 28013G23KT 15/03 A2973 RMK A01 T01450027  RH  045%=      5-min Rain = 0
KPD2 090257Z 28014G19KT 14/03 A2973 RMK A01 T01440027  RH  045%=      5-min Rain = 0
KPD2 090258Z 27013G18KT 14/03 A2973 RMK A01 T01440027  RH  045%=      5-min Rain = 0
KPD2 090259Z 27016G21KT 14/03 A2973 RMK A01 T01440027  RH  045%=      5-min Rain = 0
KPD2 090300Z 28013G19KT 14/03 A2973 RMK A01 T01440027  RH  045%=      5-min Rain = 0
KPD2 090301Z 27012G19KT 14/03 A2973 RMK A01 T01440027  RH  045%=      5-min Rain = 0
KPD2 090302Z 28013KT 14/03 A2973 RMK A01 T01440027  RH  045%=      5-min Rain = 0
KPD2 090303Z 28015KT 14/03 A2973 RMK A01 T01440027  RH  045%=      5-min Rain = 0
KPD2 090304Z 29009KT 14/03 A2973 RMK A01 T01440027  RH  045%=      5-min Rain = 0
KPD2 090305Z 28014G23KT 14/03 A2972 RMK A01 T01430027  RH  045%=      5-min Rain = 0
KPD2 090306Z 28014G21KT 14/03 A2972 RMK A01 T01430026  RH  045%=      5-min Rain = 0
KPD2 090307Z 29014KT 14/03 A2972 RMK A01 T01430027  RH  045%=      5-min Rain = 0
KPD2 090308Z 29009KT 14/03 A2972 RMK A01 T01440027  RH  045%=      5-min Rain = 0
KPD2 090309Z 29009G17KT 14/03 A2972 RMK A01 T01430026  RH  045%=      5-min Rain = 0
KPD2 090310Z 29009KT 14/03 A2972 RMK A01 T01420026  RH  046%=      5-min Rain = 0
KPD2 090311Z 30013G19KT 14/03 A2972 RMK A01 T01420026  RH  046%=      5-min Rain = 0
KPD2 090312Z 28013G20KT 14/03 A2972 RMK A01 T01410026  RH  046%=      5-min Rain = 0
KPD2 090313Z 29014KT 14/03 A2972 RMK A01 T01420026  RH  046%=      5-min Rain = 0
KPD2 090314Z 28014G23KT 14/03 A2972 RMK A01 T01430026  RH  045%=      5-min Rain = 0
KPD2 090315Z 29010G16KT 14/03 A2972 RMK A01 T01430027  RH  045%=      5-min Rain = 0
KPD2 090316Z 30015G20KT 14/03 A2972 RMK A01 T01430026  RH  045%=      5-min Rain = 0
KPD2 090317Z 29016G21KT 14/03 A2972 RMK A01 T01430026  RH  045%=      5-min Rain = 0
KPD2 090318Z 28013G19KT 14/03 A2973 RMK A01 T01430026  RH  045%=      5-min Rain = 0
KPD2 090319Z 30017G25KT 14/03 A2973 RMK A01 T01430026  RH  045%=      5-min Rain = 0
KPD2 090320Z 30013G21KT 14/03 A2973 RMK A01 T01430026  RH  045%=      5-min Rain = 0
KPD2 090321Z 29017G22KT 14/03 A2973 RMK A01 T01430026  RH  045%=      5-min Rain = 0
KPD2 090322Z 28012G20KT 14/03 A2973 RMK A01 T01430026  RH  045%=      5-min Rain = 0
KPD2 090323Z 29017G23KT 14/03 A2973 RMK A01 T01430026  RH  045%=      5-min Rain = 0
KPD2 090324Z 29012G18KT 14/03 A2973 RMK A01 T01440026  RH  045%=      5-min Rain = 0
KPD2 090325Z 28012G19KT 14/03 A2973 RMK A01 T01440026  RH  045%=      5-min Rain = 0
KPD2 090326Z 30012KT 14/03 A2973 RMK A01 T01430026  RH  045%=      5-min Rain = 0
KPD2 090327Z 30010KT 14/03 A2973 RMK A01 T01430026  RH  045%=      5-min Rain = 0
KPD2 090328Z 29012G18KT 14/03 A2973 RMK A01 T01420026  RH  045%=      5-min Rain = 0
KPD2 090329Z 28011G16KT 14/03 A2973 RMK A01 T01410026  RH  046%=      5-min Rain = 0
KPD2 090330Z 30009G16KT 14/03 A2973 RMK A01 T01410026  RH  046%=      5-min Rain = 0
KPD2 090331Z 28012KT 14/03 A2973 RMK A01 T01410026  RH  046%=      5-min Rain = 0
KPD2 090332Z 28010G21KT 14/03 A2973 RMK A01 T01410026  RH  046%=      5-min Rain = 0
KPD2 090333Z 28009KT 14/03 A2973 RMK A01 T01400025  RH  046%=      5-min Rain = 0
KPD2 090334Z 31011G16KT 14/03 A2973 RMK A01 T01400025  RH  046%=      5-min Rain = 0
KPD2 090335Z 29014G19KT 14/03 A2973 RMK A01 T01400026  RH  046%=      5-min Rain = 0
KPD2 090336Z 29013G18KT 14/03 A2973 RMK A01 T01390025  RH  046%=      5-min Rain = 0
KPD2 090337Z 29009KT 14/03 A2973 RMK A01 T01400026  RH  046%=      5-min Rain = 0
KPD2 090338Z 29010KT 14/03 A2973 RMK A01 T01400025  RH  046%=      5-min Rain = 0
KPD2 090339Z 30009KT 14/03 A2973 RMK A01 T01390025  RH  046%=      5-min Rain = 0
KPD2 090340Z 29013G19KT 14/03 A2973 RMK A01 T01380025  RH  046%=      5-min Rain = 0
KPD2 090341Z 29012G18KT 14/03 A2973 RMK A01 T01380025  RH  046%=      5-min Rain = 0
KPD2 090342Z 28010G15KT 14/03 A2973 RMK A01 T01390025  RH  046%=      5-min Rain = 0
KPD2 090343Z 29014G20KT 14/03 A2973 RMK A01 T01390025  RH  046%=      5-min Rain = 0
KPD2 090344Z 29014G19KT 14/03 A2973 RMK A01 T01390025  RH  046%=      5-min Rain = 0
KPD2 090345Z 29014G20KT 14/03 A2973 RMK A01 T01400025  RH  046%=      5-min Rain = 0
KPD2 090346Z 29014G19KT 14/03 A2973 RMK A01 T01390025  RH  046%=      5-min Rain = 0
KPD2 090347Z 28013G19KT 14/03 A2973 RMK A01 T01390025  RH  046%=      5-min Rain = 0
KPD2 090348Z 30012KT 14/03 A2973 RMK A01 T01390025  RH  046%=      5-min Rain = 0
KPD2 090349Z 28012G17KT 14/03 A2973 RMK A01 T01390025  RH  046%=      5-min Rain = 0
KPD2 090350Z 29010G15KT 14/03 A2973 RMK A01 T01390025  RH  046%=      5-min Rain = 0
KPD2 090351Z 29010KT 14/03 A2973 RMK A01 T01380025  RH  046%=      5-min Rain = 0
KPD2 090352Z 30008KT 14/03 A2974 RMK A01 T01380025  RH  046%=      5-min Rain = 0
KPD2 090353Z 29015G20KT 14/03 A2974 RMK A01 T01360025  RH  047%=      5-min Rain = 0
KPD2 090354Z 30009G17KT 14/03 A2974 RMK A01 T01360025  RH  047%=      5-min Rain = 0
KPD2 090355Z 29012G17KT 14/03 A2974 RMK A01 T01360025  RH  047%=      5-min Rain = 0
KPD2 090356Z 30010KT 14/03 A2974 RMK A01 T01360025  RH  047%=      5-min Rain = 0
KPD2 090357Z 29009G14KT 14/03 A2974 RMK A01 T01360025  RH  047%=      5-min Rain = 0
KPD2 090358Z 30011G20KT 14/03 A2973 RMK A01 T01350025  RH  047%=      5-min Rain = 0
KPD2 090359Z 29013G22KT 14/03 A2973 RMK A01 T01350025  RH  047%=      5-min Rain = 0
KPD2 090400Z 29011KT 14/03 A2973 RMK A01 T01360025  RH  047%=      5-min Rain = 0
KPD2 090401Z 31009G14KT 14/03 A2973 RMK A01 T01360025  RH  047%=      5-min Rain = 0
KPD2 090402Z 31008KT 14/03 A2973 RMK A01 T01350025  RH  047%=      5-min Rain = 0
KPD2 090403Z 29008KT 14/03 A2973 RMK A01 T01350025  RH  047%=      5-min Rain = 0
KPD2 090404Z 30012G17KT 14/03 A2973 RMK A01 T01350025  RH  047%=      5-min Rain = 0
KPD2 090405Z 29008KT 14/02 A2973 RMK A01 T01350024  RH  047%=      5-min Rain = 0
KPD2 090406Z 30007KT 14/02 A2973 RMK A01 T01350024  RH  047%=      5-min Rain = 0
KPD2 090407Z 30007KT 14/02 A2973 RMK A01 T01350024  RH  047%=      5-min Rain = 0
KPD2 090408Z 29009KT 13/02 A2973 RMK A01 T01340024  RH  047%=      5-min Rain = 0
KPD2 090409Z 29008KT 13/03 A2973 RMK A01 T01340025  RH  048%=      5-min Rain = 0
KPD2 090410Z 30010KT 13/03 A2973 RMK A01 T01340025  RH  048%=      5-min Rain = 0
KPD2 090411Z 29009KT 13/03 A2973 RMK A01 T01340025  RH  048%=      5-min Rain = 0
KPD2 090412Z 31007G12KT 13/03 A2973 RMK A01 T01330025  RH  048%=      5-min Rain = 0
KPD2 090413Z 29008KT 13/03 A2973 RMK A01 T01340025  RH  048%=      5-min Rain = 0
KPD2 090414Z 29006KT 13/03 A2974 RMK A01 T01330025  RH  048%=      5-min Rain = 0
KPD2 090415Z 30009G15KT 13/03 A2974 RMK A01 T01320025  RH  048%=      5-min Rain = 0
KPD2 090416Z 30010G17KT 13/03 A2974 RMK A01 T01330025  RH  048%=      5-min Rain = 0
KPD2 090417Z 30010KT 13/03 A2974 RMK A01 T01330025  RH  048%=      5-min Rain = 0
KPD2 090418Z 29010G17KT 13/03 A2974 RMK A01 T01340025  RH  048%=      5-min Rain = 0
KPD2 090419Z 28011G19KT 13/03 A2973 RMK A01 T01340025  RH  047%=      5-min Rain = 0
KPD2 090420Z 30010G17KT 14/03 A2973 RMK A01 T01350025  RH  047%=      5-min Rain = 0
KPD2 090421Z 27011KT 14/03 A2973 RMK A01 T01350025  RH  047%=      5-min Rain = 0
KPD2 090422Z 31010KT 14/03 A2973 RMK A01 T01350025  RH  047%=      5-min Rain = 0
KPD2 090423Z 30011KT 14/03 A2973 RMK A01 T01350025  RH  047%=      5-min Rain = 0
KPD2 090424Z 30010G15KT 13/03 A2973 RMK A01 T01340025  RH  047%=      5-min Rain = 0
KPD2 090425Z 31010KT 13/03 A2973 RMK A01 T01340025  RH  047%=      5-min Rain = 0
KPD2 090426Z 31008KT 13/03 A2973 RMK A01 T01340025  RH  048%=      5-min Rain = 0
KPD2 090427Z 30006KT 13/03 A2973 RMK A01 T01330025  RH  048%=      5-min Rain = 0
KPD2 090428Z 30010KT 13/03 A2973 RMK A01 T01330025  RH  048%=      5-min Rain = 0
KPD2 090429Z 31012KT 13/03 A2973 RMK A01 T01330025  RH  048%=      5-min Rain = 0
KPD2 090430Z 29011G16KT 13/03 A2972 RMK A01 T01340025  RH  048%=      5-min Rain = 0
KPD2 090431Z 29009G14KT 13/03 A2973 RMK A01 T01340025  RH  048%=      5-min Rain = 0
KPD2 090432Z 28011G17KT 13/03 A2973 RMK A01 T01340025  RH  048%=      5-min Rain = 0
KPD2 090433Z 28007KT 13/03 A2973 RMK A01 T01340025  RH  048%=      5-min Rain = 0
KPD2 090434Z 30007KT 13/03 A2973 RMK A01 T01340026  RH  048%=      5-min Rain = 0
KPD2 090435Z 28009G14KT 13/03 A2973 RMK A01 T01340025  RH  048%=      5-min Rain = 0
KPD2 090436Z 29013KT 13/03 A2973 RMK A01 T01330026  RH  048%=      5-min Rain = 0
KPD2 090437Z 29013G19KT 13/03 A2974 RMK A01 T01330026  RH  048%=      5-min Rain = 0
KPD2 090438Z 28010G17KT 13/03 A2974 RMK A01 T01340027  RH  048%=      5-min Rain = 0
KPD2 090439Z 29009KT 13/03 A2974 RMK A01 T01340027  RH  048%=      5-min Rain = 0
KPD2 090440Z 28009G15KT 13/03 A2973 RMK A01 T01340027  RH  048%=      5-min Rain = 0
KPD2 090441Z 29010KT 13/03 A2973 RMK A01 T01340027  RH  048%=      5-min Rain = 0
KPD2 090442Z 29010G16KT 13/03 A2973 RMK A01 T01330027  RH  049%=      5-min Rain = 0
KPD2 090443Z 28011G17KT 13/03 A2973 RMK A01 T01330027  RH  049%=      5-min Rain = 0
KPD2 090444Z 28014G24KT 13/03 A2973 RMK A01 T01330027  RH  049%=      5-min Rain = 0
KPD2 090445Z 29017G25KT 13/03 A2973 RMK A01 T01330028  RH  049%=      5-min Rain = 0
KPD2 090446Z 29012G20KT 14/03 A2973 RMK A01 T01350028  RH  048%=      5-min Rain = 0
KPD2 090447Z 28010G17KT 14/03 A2973 RMK A01 T01350028  RH  048%=      5-min Rain = 0
KPD2 090448Z 28012G18KT 14/03 A2973 RMK A01 T01350028  RH  048%=      5-min Rain = 0
KPD2 090449Z 29011G17KT 14/03 A2973 RMK A01 T01350029  RH  049%=      5-min Rain = 0
KPD2 090450Z 29012G17KT 13/03 A2973 RMK A01 T01340028  RH  049%=      5-min Rain = 0
KPD2 090451Z 30014G22KT 13/03 A2973 RMK A01 T01340029  RH  049%=      5-min Rain = 0
KPD2 090452Z 28013G18KT 13/03 A2973 RMK A01 T01340029  RH  049%=      5-min Rain = 0
KPD2 090453Z 28011KT 13/03 A2973 RMK A01 T01340028  RH  049%=      5-min Rain = 0
KPD2 090454Z 29009G16KT 13/03 A2974 RMK A01 T01340029  RH  049%=      5-min Rain = 0
KPD2 090455Z 28014G21KT 13/03 A2974 RMK A01 T01340029  RH  049%=      5-min Rain = 0
KPD2 090456Z 27013G22KT 13/03 A2974 RMK A01 T01340029  RH  049%=      5-min Rain = 0
KPD2 090457Z 28009G17KT 13/03 A2974 RMK A01 T01340029  RH  049%=      5-min Rain = 0
KPD2 090458Z 29011KT 13/03 A2974 RMK A01 T01340029  RH  049%=      5-min Rain = 0
KPD2 090459Z 29011KT 13/03 A2974 RMK A01 T01330029  RH  049%=      5-min Rain = 0
KPD2 090500Z 28012G19KT 13/03 A2974 RMK A01 T01340030  RH  049%=      5-min Rain = 0
KPD2 090501Z 27013G18KT 13/03 A2974 RMK A01 T01340030  RH  049%=      5-min Rain = 0
KPD2 090502Z 29015G21KT 13/03 A2974 RMK A01 T01330030  RH  049%=      5-min Rain = 0
KPD2 090503Z 29015G24KT 13/03 A2973 RMK A01 T01330030  RH  049%=      5-min Rain = 0
KPD2 090504Z 29010G20KT 13/03 A2973 RMK A01 T01330030  RH  049%=      5-min Rain = 0
KPD2 090505Z 28012G21KT 13/03 A2973 RMK A01 T01330030  RH  050%=      5-min Rain = 0
KPD2 090506Z 29012G19KT 13/03 A2973 RMK A01 T01330030  RH  050%=      5-min Rain = 0
KPD2 090507Z 28016G22KT 13/03 A2974 RMK A01 T01330030  RH  050%=      5-min Rain = 0
KPD2 090508Z 28013G19KT 13/03 A2974 RMK A01 T01330030  RH  050%=      5-min Rain = 0
KPD2 090509Z 30013G22KT 13/03 A2974 RMK A01 T01330030  RH  050%=      5-min Rain = 0
KPD2 090510Z 28014KT 13/03 A2974 RMK A01 T01320030  RH  050%=      5-min Rain = 0
KPD2 090511Z 29010KT 13/03 A2974 RMK A01 T01320031  RH  050%=      5-min Rain = 0
KPD2 090512Z 29011KT 13/03 A2974 RMK A01 T01310030  RH  050%=      5-min Rain = 0
KPD2 090513Z 32006KT 13/03 A2974 RMK A01 T01310030  RH  051%=      5-min Rain = 0
KPD2 090514Z 28007G14KT 13/03 A2974 RMK A01 T01290030  RH  051%=      5-min Rain = 0
KPD2 090515Z 27009G15KT 13/03 A2974 RMK A01 T01290030  RH  051%=      5-min Rain = 0
KPD2 090516Z 28008KT 13/03 A2974 RMK A01 T01290031  RH  051%=      5-min Rain = 0
KPD2 090517Z 28013KT 13/03 A2974 RMK A01 T01290031  RH  051%=      5-min Rain = 0
KPD2 090518Z 29012G17KT 13/03 A2974 RMK A01 T01300031  RH  051%=      5-min Rain = 0
KPD2 090519Z 28014KT 13/03 A2974 RMK A01 T01300031  RH  051%=      5-min Rain = 0
KPD2 090520Z 29011KT 13/03 A2974 RMK A01 T01310031  RH  051%=      5-min Rain = 0
KPD2 090521Z 28015G20KT 13/03 A2974 RMK A01 T01300031  RH  051%=      5-min Rain = 0
KPD2 090522Z 29011G17KT 13/03 A2974 RMK A01 T01310031  RH  051%=      5-min Rain = 0
KPD2 090523Z 29014G20KT 13/03 A2974 RMK A01 T01310032  RH  051%=      5-min Rain = 0
KPD2 090524Z 29014KT 13/03 A2974 RMK A01 T01310031  RH  051%=      5-min Rain = 0
KPD2 090525Z 28008G13KT 13/03 A2974 RMK A01 T01310031  RH  051%=      5-min Rain = 0
KPD2 090526Z 29010G16KT 13/03 A2974 RMK A01 T01300031  RH  051%=      5-min Rain = 0
KPD2 090527Z 29014G21KT 13/03 A2974 RMK A01 T01300032  RH  051%=      5-min Rain = 0
KPD2 090528Z 29014G20KT 13/03 A2974 RMK A01 T01300032  RH  051%=      5-min Rain = 0
KPD2 090529Z 28013G18KT 13/03 A2974 RMK A01 T01300032  RH  051%=      5-min Rain = 0
KPD2 090530Z 29013KT 13/03 A2974 RMK A01 T01310033  RH  051%=      5-min Rain = 0
KPD2 090531Z 29012KT 13/03 A2974 RMK A01 T01310033  RH  051%=      5-min Rain = 0
KPD2 090532Z 28011G17KT 13/03 A2974 RMK A01 T01300032  RH  051%=      5-min Rain = 0
KPD2 090533Z 31006KT 13/03 A2974 RMK A01 T01300033  RH  051%=      5-min Rain = 0
KPD2 090534Z 30007KT 13/03 A2974 RMK A01 T01290032  RH  052%=      5-min Rain = 0
KPD2 090535Z 28008G15KT 13/03 A2974 RMK A01 T01280032  RH  052%=      5-min Rain = 0
KPD2 090536Z 29014KT 13/03 A2974 RMK A01 T01270032  RH  052%=      5-min Rain = 0
KPD2 090537Z 30010KT 13/03 A2974 RMK A01 T01280033  RH  052%=      5-min Rain = 0
KPD2 090538Z 32007KT 13/03 A2974 RMK A01 T01280033  RH  052%=      5-min Rain = 0
KPD2 090539Z 31008KT 13/03 A2974 RMK A01 T01270032  RH  052%=      5-min Rain = 0
KPD2 090540Z 30008KT 13/03 A2974 RMK A01 T01260032  RH  053%=      5-min Rain = 0
KPD2 090541Z 30007KT 13/03 A2974 RMK A01 T01260033  RH  053%=      5-min Rain = 0
KPD2 090542Z 31006KT 13/03 A2974 RMK A01 T01260033  RH  053%=      5-min Rain = 0
KPD2 090543Z 30009KT 13/03 A2974 RMK A01 T01260033  RH  053%=      5-min Rain = 0
KPD2 090544Z 29010KT 13/03 A2974 RMK A01 T01260033  RH  053%=      5-min Rain = 0
KPD2 090545Z 29008G13KT 13/03 A2974 RMK A01 T01260034  RH  053%=      5-min Rain = 0
KPD2 090546Z 30006KT 13/03 A2974 RMK A01 T01260034  RH  053%=      5-min Rain = 0
KPD2 090547Z 31006KT 13/03 A2974 RMK A01 T01260033  RH  053%=      5-min Rain = 0
KPD2 090548Z 29009KT 13/03 A2974 RMK A01 T01250034  RH  054%=      5-min Rain = 0
KPD2 090549Z 28009KT 13/03 A2974 RMK A01 T01250034  RH  054%=      5-min Rain = 0
KPD2 090550Z 30008G14KT 13/03 A2974 RMK A01 T01260034  RH  053%=      5-min Rain = 0
KPD2 090551Z 30012KT 13/03 A2974 RMK A01 T01270034  RH  053%=      5-min Rain = 0
KPD2 090552Z 29008G13KT 13/03 A2974 RMK A01 T01280034  RH  053%=      5-min Rain = 0
KPD2 090553Z 30007KT 13/03 A2974 RMK A01 T01280034  RH  053%=      5-min Rain = 0
KPD2 090554Z 31008KT 13/03 A2974 RMK A01 T01280034  RH  053%=      5-min Rain = 0
KPD2 090555Z 30009G14KT 13/03 A2974 RMK A01 T01280034  RH  053%=      5-min Rain = 0
KPD2 090556Z 30009G15KT 13/03 A2974 RMK A01 T01280034  RH  053%=      5-min Rain = 0
KPD2 090557Z 28011G20KT 13/03 A2974 RMK A01 T01280034  RH  053%=      5-min Rain = 0
KPD2 090558Z 28011G18KT 13/04 A2974 RMK A01 T01300035  RH  052%=      5-min Rain = 0
KPD2 090559Z 29010KT 13/03 A2974 RMK A01 T01310034  RH  052%=      5-min Rain = 0

Page generated in 0.0733 seconds.